<?xml version='1.0' encoding='UTF-8'?><gpx version="1.1" creator="JPX - https://github.com/jenetics/jpx" xmlns="http://www.topografix.com/GPX/1/1"><trk><trkseg><trkpt lat="41.729404" lon="12.7012175"><ele>534.8333333333334</ele><time>2026-04-06T12:26:13.646Z</time></trkpt><trkpt lat="41.7293352" lon="12.7011972"><ele>532.6666666666666</ele><time>2026-04-06T12:26:25.698Z</time></trkpt><trkpt lat="41.7292638" lon="12.7011969"><ele>530.5</ele><time>2026-04-06T12:26:29.851Z</time></trkpt><trkpt lat="41.729198" lon="12.7011967"><ele>528.3333333333333</ele><time>2026-04-06T12:26:56.652Z</time></trkpt><trkpt lat="41.7291276" lon="12.7011637"><ele>526.1666666666666</ele><time>2026-04-06T12:26:59.725Z</time></trkpt><trkpt lat="41.7290412" lon="12.7011036"><ele>524.0</ele><time>2026-04-06T12:27:03.676Z</time></trkpt><trkpt lat="41.729003" lon="12.7010241"><ele>524.0</ele><time>2026-04-06T12:27:07.738Z</time></trkpt><trkpt lat="41.7289889" lon="12.7009311"><ele>524.0</ele><time>2026-04-06T12:27:14.653Z</time></trkpt><trkpt lat="41.7289866" lon="12.7008466"><ele>524.0</ele><time>2026-04-06T12:27:21.678Z</time></trkpt><trkpt lat="41.728991" lon="12.7007455"><ele>524.0</ele><time>2026-04-06T12:27:33.444Z</time></trkpt><trkpt lat="41.7289896" lon="12.7006506"><ele>524.0</ele><time>2026-04-06T12:27:37.703Z</time></trkpt><trkpt lat="41.7289676" lon="12.700567"><ele>524.0</ele><time>2026-04-06T12:27:41.575Z</time></trkpt><trkpt lat="41.7289221" lon="12.7004972"><ele>524.0</ele><time>2026-04-06T12:27:48.602Z</time></trkpt><trkpt lat="41.7288565" lon="12.7004711"><ele>524.0</ele><time>2026-04-06T12:27:56.652Z</time></trkpt><trkpt lat="41.7288103" lon="12.7004111"><ele>524.0</ele><time>2026-04-06T12:28:03.716Z</time></trkpt><trkpt lat="41.7287961" lon="12.7003252"><ele>524.0</ele><time>2026-04-06T12:28:11.022Z</time></trkpt><trkpt lat="41.7287688" lon="12.7002336"><ele>524.0</ele><time>2026-04-06T12:28:20.261Z</time></trkpt><trkpt lat="41.7287333" lon="12.7001612"><ele>524.0</ele><time>2026-04-06T12:28:25.669Z</time></trkpt><trkpt lat="41.7286689" lon="12.7001317"><ele>524.0</ele><time>2026-04-06T12:28:33.773Z</time></trkpt><trkpt lat="41.7286164" lon="12.7000845"><ele>524.0</ele><time>2026-04-06T12:28:40.672Z</time></trkpt><trkpt lat="41.7285533" lon="12.7000423"><ele>523.2857142857143</ele><time>2026-04-06T12:28:49.683Z</time></trkpt><trkpt lat="41.7284854" lon="12.6999933"><ele>522.5714285714287</ele><time>2026-04-06T12:28:53.658Z</time></trkpt><trkpt lat="41.7284285" lon="12.6999238"><ele>521.8571428571429</ele><time>2026-04-06T12:29:00.695Z</time></trkpt><trkpt lat="41.7283704" lon="12.6998695"><ele>521.1428571428571</ele><time>2026-04-06T12:29:08.695Z</time></trkpt><trkpt lat="41.7283084" lon="12.6998368"><ele>520.4285714285713</ele><time>2026-04-06T12:29:14.732Z</time></trkpt><trkpt lat="41.7282537" lon="12.6997762"><ele>519.7142857142857</ele><time>2026-04-06T12:29:20.659Z</time></trkpt><trkpt lat="41.7281983" lon="12.6997308"><ele>519.0</ele><time>2026-04-06T12:29:28.671Z</time></trkpt><trkpt lat="41.7281417" lon="12.6996806"><ele>519.0</ele><time>2026-04-06T12:29:35.696Z</time></trkpt><trkpt lat="41.7280957" lon="12.6996121"><ele>519.0</ele><time>2026-04-06T12:29:41.733Z</time></trkpt><trkpt lat="41.7280422" lon="12.6995604"><ele>519.0</ele><time>2026-04-06T12:29:47.615Z</time></trkpt><trkpt lat="41.7279873" lon="12.6995133"><ele>519.0</ele><time>2026-04-06T12:29:53.697Z</time></trkpt><trkpt lat="41.7279255" lon="12.6994762"><ele>519.0</ele><time>2026-04-06T12:30:01.709Z</time></trkpt><trkpt lat="41.7278735" lon="12.6994165"><ele>519.0</ele><time>2026-04-06T12:30:09.135Z</time></trkpt><trkpt lat="41.727841" lon="12.6993383"><ele>519.0</ele><time>2026-04-06T12:30:16.145Z</time></trkpt><trkpt lat="41.7277819" lon="12.6992965"><ele>520.1428571428571</ele><time>2026-04-06T12:30:22.673Z</time></trkpt><trkpt lat="41.7277154" lon="12.6992934"><ele>521.2857142857142</ele><time>2026-04-06T12:30:27.711Z</time></trkpt><trkpt lat="41.7276466" lon="12.6993056"><ele>522.4285714285714</ele><time>2026-04-06T12:30:32.661Z</time></trkpt><trkpt lat="41.727589" lon="12.6992691"><ele>523.5714285714286</ele><time>2026-04-06T12:30:37.772Z</time></trkpt><trkpt lat="41.7275268" lon="12.6992438"><ele>524.7142857142858</ele><time>2026-04-06T12:30:43.894Z</time></trkpt><trkpt lat="41.7274614" lon="12.6992364"><ele>525.8571428571429</ele><time>2026-04-06T12:30:50.661Z</time></trkpt><trkpt lat="41.7273854" lon="12.6992368"><ele>527.0</ele><time>2026-04-06T12:30:56.698Z</time></trkpt><trkpt lat="41.7273155" lon="12.6992298"><ele>527.0000000000001</ele><time>2026-04-06T12:31:02.361Z</time></trkpt><trkpt lat="41.7272481" lon="12.6992028"><ele>527.0</ele><time>2026-04-06T12:31:08.628Z</time></trkpt><trkpt lat="41.7272032" lon="12.6991408"><ele>527.0</ele><time>2026-04-06T12:31:13.229Z</time></trkpt><trkpt lat="41.7271584" lon="12.699078"><ele>527.0</ele><time>2026-04-06T12:31:19.635Z</time></trkpt><trkpt lat="41.7271118" lon="12.6990189"><ele>527.0</ele><time>2026-04-06T12:31:26.662Z</time></trkpt><trkpt lat="41.7270636" lon="12.6989624"><ele>527.0000000000001</ele><time>2026-04-06T12:31:34.664Z</time></trkpt><trkpt lat="41.7270004" lon="12.6989647"><ele>527.0</ele><time>2026-04-06T12:31:41.776Z</time></trkpt><trkpt lat="41.726935" lon="12.6989708"><ele>524.8571428571429</ele><time>2026-04-06T12:31:48.704Z</time></trkpt><trkpt lat="41.726868" lon="12.6989645"><ele>522.7142857142858</ele><time>2026-04-06T12:31:54.635Z</time></trkpt><trkpt lat="41.7268052" lon="12.6989728"><ele>520.5714285714286</ele><time>2026-04-06T12:31:59.701Z</time></trkpt><trkpt lat="41.7267406" lon="12.6989646"><ele>518.4285714285714</ele><time>2026-04-06T12:32:08.717Z</time></trkpt><trkpt lat="41.7266777" lon="12.6989352"><ele>516.2857142857142</ele><time>2026-04-06T12:32:17.7Z</time></trkpt><trkpt lat="41.7266151" lon="12.6989198"><ele>514.1428571428571</ele><time>2026-04-06T12:32:23.737Z</time></trkpt><trkpt lat="41.7265515" lon="12.6988947"><ele>512.0</ele><time>2026-04-06T12:32:28.676Z</time></trkpt><trkpt lat="41.7264746" lon="12.6988814"><ele>512.0</ele><time>2026-04-06T12:32:34.717Z</time></trkpt><trkpt lat="41.7264089" lon="12.6988415"><ele>511.99999999999994</ele><time>2026-04-06T12:32:43.712Z</time></trkpt><trkpt lat="41.7263418" lon="12.6987977"><ele>512.0</ele><time>2026-04-06T12:32:48.66Z</time></trkpt><trkpt lat="41.7262883" lon="12.6987497"><ele>512.0</ele><time>2026-04-06T12:32:53.7Z</time></trkpt><trkpt lat="41.7262413" lon="12.6986859"><ele>511.99999999999994</ele><time>2026-04-06T12:33:01.75Z</time></trkpt><trkpt lat="41.7261846" lon="12.6986414"><ele>512.0</ele><time>2026-04-06T12:33:11.7Z</time></trkpt><trkpt lat="41.7261307" lon="12.6985763"><ele>512.0</ele><time>2026-04-06T12:33:18.739Z</time></trkpt><trkpt lat="41.7260874" lon="12.6985022"><ele>514.0</ele><time>2026-04-06T12:33:22.676Z</time></trkpt><trkpt lat="41.7260517" lon="12.6984287"><ele>516.0</ele><time>2026-04-06T12:33:27.725Z</time></trkpt><trkpt lat="41.7260052" lon="12.6983672"><ele>518.0</ele><time>2026-04-06T12:33:36.725Z</time></trkpt><trkpt lat="41.725952" lon="12.6983202"><ele>520.0</ele><time>2026-04-06T12:33:51.653Z</time></trkpt><trkpt lat="41.7258773" lon="12.6983099"><ele>522.0</ele><time>2026-04-06T12:34:00.653Z</time></trkpt><trkpt lat="41.7258111" lon="12.6982909"><ele>524.0</ele><time>2026-04-06T12:34:06.689Z</time></trkpt><trkpt lat="41.7257494" lon="12.6982637"><ele>526.0</ele><time>2026-04-06T12:34:19.679Z</time></trkpt><trkpt lat="41.7256761" lon="12.6981975"><ele>526.0</ele><time>2026-04-06T12:34:26.665Z</time></trkpt><trkpt lat="41.7256196" lon="12.698156"><ele>526.0</ele><time>2026-04-06T12:34:38.696Z</time></trkpt><trkpt lat="41.725556" lon="12.6981383"><ele>526.0</ele><time>2026-04-06T12:34:46.75Z</time></trkpt><trkpt lat="41.7254973" lon="12.6981018"><ele>526.0</ele><time>2026-04-06T12:34:58.714Z</time></trkpt><trkpt lat="41.725432" lon="12.6980964"><ele>526.0</ele><time>2026-04-06T12:35:05.653Z</time></trkpt><trkpt lat="41.725359" lon="12.6980707"><ele>526.0</ele><time>2026-04-06T12:35:11.635Z</time></trkpt><trkpt lat="41.7253065" lon="12.6980186"><ele>526.0</ele><time>2026-04-06T12:35:20.665Z</time></trkpt><trkpt lat="41.7252536" lon="12.69794"><ele>522.3333333333334</ele><time>2026-04-06T12:35:29.665Z</time></trkpt><trkpt lat="41.7252013" lon="12.6978734"><ele>518.6666666666667</ele><time>2026-04-06T12:35:36.69Z</time></trkpt><trkpt lat="41.7251408" lon="12.6978383"><ele>515.0</ele><time>2026-04-06T12:35:52.714Z</time></trkpt><trkpt lat="41.7250755" lon="12.6978184"><ele>511.33333333333337</ele><time>2026-04-06T12:36:20.701Z</time></trkpt><trkpt lat="41.7250119" lon="12.6978135"><ele>507.6666666666667</ele><time>2026-04-06T12:36:25.751Z</time></trkpt><trkpt lat="41.7248839" lon="12.6978411"><ele>504.0</ele><time>2026-04-06T12:36:36.727Z</time></trkpt><trkpt lat="41.7248155" lon="12.6978423"><ele>504.0</ele><time>2026-04-06T12:36:44.181Z</time></trkpt><trkpt lat="41.7247495" lon="12.6978141"><ele>504.0</ele><time>2026-04-06T12:36:53.651Z</time></trkpt><trkpt lat="41.7246828" lon="12.6978132"><ele>504.0</ele><time>2026-04-06T12:37:01.75Z</time></trkpt><trkpt lat="41.7246193" lon="12.6978075"><ele>504.0</ele><time>2026-04-06T12:37:05.617Z</time></trkpt><trkpt lat="41.7245481" lon="12.6978015"><ele>504.0</ele><time>2026-04-06T12:37:12.276Z</time></trkpt><trkpt lat="41.7244785" lon="12.6978001"><ele>504.0</ele><time>2026-04-06T12:37:19.69Z</time></trkpt><trkpt lat="41.7244146" lon="12.6978075"><ele>504.0</ele><time>2026-04-06T12:37:28.788Z</time></trkpt><trkpt lat="41.7243445" lon="12.6978416"><ele>506.1428571428571</ele><time>2026-04-06T12:37:33.691Z</time></trkpt><trkpt lat="41.7242824" lon="12.6978582"><ele>508.2857142857143</ele><time>2026-04-06T12:37:38.632Z</time></trkpt><trkpt lat="41.7242129" lon="12.6978946"><ele>510.42857142857144</ele><time>2026-04-06T12:37:42.691Z</time></trkpt><trkpt lat="41.7242358" lon="12.6978118"><ele>512.5714285714286</ele><time>2026-04-06T12:38:16.715Z</time></trkpt><trkpt lat="41.7242213" lon="12.697726"><ele>514.7142857142857</ele><time>2026-04-06T12:38:34.651Z</time></trkpt><trkpt lat="41.7242009" lon="12.6976392"><ele>516.8571428571429</ele><time>2026-04-06T12:38:43.716Z</time></trkpt><trkpt lat="41.7241868" lon="12.6975454"><ele>519.0</ele><time>2026-04-06T12:38:51.278Z</time></trkpt><trkpt lat="41.724192" lon="12.6974608"><ele>519.0</ele><time>2026-04-06T12:39:00.73Z</time></trkpt><trkpt lat="41.7241312" lon="12.6974285"><ele>519.0</ele><time>2026-04-06T12:39:09.728Z</time></trkpt><trkpt lat="41.7240678" lon="12.6974189"><ele>519.0</ele><time>2026-04-06T12:39:14.667Z</time></trkpt><trkpt lat="41.7240048" lon="12.6973909"><ele>519.0</ele><time>2026-04-06T12:39:18.728Z</time></trkpt><trkpt lat="41.7239406" lon="12.6973481"><ele>519.0</ele><time>2026-04-06T12:39:24.655Z</time></trkpt><trkpt lat="41.7239019" lon="12.6972612"><ele>519.0</ele><time>2026-04-06T12:39:29.682Z</time></trkpt><trkpt lat="41.723903" lon="12.697175"><ele>519.0</ele><time>2026-04-06T12:39:32.667Z</time></trkpt><trkpt lat="41.7238976" lon="12.6970803"><ele>519.0</ele><time>2026-04-06T12:39:36.728Z</time></trkpt><trkpt lat="41.7238358" lon="12.6970326"><ele>519.0</ele><time>2026-04-06T12:39:50.667Z</time></trkpt><trkpt lat="41.7237656" lon="12.6970066"><ele>519.0</ele><time>2026-04-06T12:39:57.614Z</time></trkpt><trkpt lat="41.7236963" lon="12.697011"><ele>519.0</ele><time>2026-04-06T12:40:03.728Z</time></trkpt><trkpt lat="41.7236264" lon="12.697025"><ele>519.0</ele><time>2026-04-06T12:40:10.59Z</time></trkpt><trkpt lat="41.7235633" lon="12.6970088"><ele>519.0</ele><time>2026-04-06T12:40:15.699Z</time></trkpt><trkpt lat="41.7234988" lon="12.6969592"><ele>519.0</ele><time>2026-04-06T12:40:19.935Z</time></trkpt><trkpt lat="41.72345" lon="12.6968743"><ele>519.0</ele><time>2026-04-06T12:40:24.618Z</time></trkpt><trkpt lat="41.7234124" lon="12.6968031"><ele>519.0</ele><time>2026-04-06T12:40:29.701Z</time></trkpt><trkpt lat="41.7233776" lon="12.6967319"><ele>519.0</ele><time>2026-04-06T12:40:44.668Z</time></trkpt><trkpt lat="41.7233193" lon="12.6966783"><ele>519.0</ele><time>2026-04-06T12:40:56.647Z</time></trkpt><trkpt lat="41.7232168" lon="12.6966782"><ele>519.0</ele><time>2026-04-06T12:40:59.705Z</time></trkpt><trkpt lat="41.7231511" lon="12.6966821"><ele>519.0</ele><time>2026-04-06T12:41:01.68Z</time></trkpt><trkpt lat="41.7230826" lon="12.6966712"><ele>519.0</ele><time>2026-04-06T12:41:06.647Z</time></trkpt><trkpt lat="41.7230489" lon="12.6965696"><ele>519.0</ele><time>2026-04-06T12:41:31.645Z</time></trkpt><trkpt lat="41.7229818" lon="12.6965199"><ele>519.0</ele><time>2026-04-06T12:41:40.647Z</time></trkpt><trkpt lat="41.7229148" lon="12.6965192"><ele>519.0</ele><time>2026-04-06T12:41:45.645Z</time></trkpt><trkpt lat="41.7228504" lon="12.6965234"><ele>519.0</ele><time>2026-04-06T12:41:53.709Z</time></trkpt><trkpt lat="41.7227828" lon="12.6964968"><ele>519.0</ele><time>2026-04-06T12:41:59.65Z</time></trkpt><trkpt lat="41.7227202" lon="12.6964569"><ele>519.0</ele><time>2026-04-06T12:42:08.645Z</time></trkpt><trkpt lat="41.7226564" lon="12.6964063"><ele>519.0</ele><time>2026-04-06T12:42:14.784Z</time></trkpt><trkpt lat="41.7226049" lon="12.6963318"><ele>520.0</ele><time>2026-04-06T12:42:24.664Z</time></trkpt><trkpt lat="41.7225533" lon="12.696275"><ele>521.0</ele><time>2026-04-06T12:42:30.701Z</time></trkpt><trkpt lat="41.7225143" lon="12.6961968"><ele>522.0</ele><time>2026-04-06T12:42:38.646Z</time></trkpt><trkpt lat="41.7224845" lon="12.6961104"><ele>523.0</ele><time>2026-04-06T12:42:47.715Z</time></trkpt><trkpt lat="41.7224344" lon="12.6960372"><ele>524.0</ele><time>2026-04-06T12:42:55.648Z</time></trkpt><trkpt lat="41.7223596" lon="12.6960134"><ele>525.0</ele><time>2026-04-06T12:43:02.646Z</time></trkpt><trkpt lat="41.7222967" lon="12.6959981"><ele>526.0</ele><time>2026-04-06T12:43:08.681Z</time></trkpt><trkpt lat="41.7222374" lon="12.6959545"><ele>526.0</ele><time>2026-04-06T12:43:16.647Z</time></trkpt><trkpt lat="41.722174" lon="12.695937"><ele>526.0</ele><time>2026-04-06T12:43:21.647Z</time></trkpt><trkpt lat="41.7221073" lon="12.695912"><ele>526.0</ele><time>2026-04-06T12:43:29.579Z</time></trkpt><trkpt lat="41.7220388" lon="12.6958886"><ele>526.0</ele><time>2026-04-06T12:43:36.673Z</time></trkpt><trkpt lat="41.7219875" lon="12.6958231"><ele>526.0</ele><time>2026-04-06T12:43:44.624Z</time></trkpt><trkpt lat="41.721941" lon="12.6957643"><ele>526.0</ele><time>2026-04-06T12:43:49.646Z</time></trkpt><trkpt lat="41.7218845" lon="12.6956992"><ele>526.0</ele><time>2026-04-06T12:43:58.647Z</time></trkpt><trkpt lat="41.7218315" lon="12.6956282"><ele>523.1666666666667</ele><time>2026-04-06T12:44:06.681Z</time></trkpt><trkpt lat="41.7217579" lon="12.695635"><ele>520.3333333333334</ele><time>2026-04-06T12:44:12.679Z</time></trkpt><trkpt lat="41.7217004" lon="12.6956877"><ele>517.5</ele><time>2026-04-06T12:44:18.585Z</time></trkpt><trkpt lat="41.7215576" lon="12.6957335"><ele>514.6666666666666</ele><time>2026-04-06T12:45:03.723Z</time></trkpt><trkpt lat="41.7214972" lon="12.6957584"><ele>511.8333333333333</ele><time>2026-04-06T12:45:10.89Z</time></trkpt><trkpt lat="41.7214316" lon="12.6957623"><ele>509.0</ele><time>2026-04-06T12:45:17.242Z</time></trkpt><trkpt lat="41.7213621" lon="12.6957519"><ele>508.99999999999994</ele><time>2026-04-06T12:45:21.623Z</time></trkpt><trkpt lat="41.721296" lon="12.6957502"><ele>509.0</ele><time>2026-04-06T12:45:30.727Z</time></trkpt><trkpt lat="41.7212309" lon="12.695767"><ele>508.99999999999994</ele><time>2026-04-06T12:45:37.648Z</time></trkpt><trkpt lat="41.7211609" lon="12.6957957"><ele>508.99999999999994</ele><time>2026-04-06T12:45:44.741Z</time></trkpt><trkpt lat="41.7210955" lon="12.6957798"><ele>509.0</ele><time>2026-04-06T12:45:50.706Z</time></trkpt><trkpt lat="41.721021" lon="12.6957493"><ele>508.99999999999994</ele><time>2026-04-06T12:45:55.731Z</time></trkpt><trkpt lat="41.720959" lon="12.6957803"><ele>508.99999999999994</ele><time>2026-04-06T12:46:01.684Z</time></trkpt><trkpt lat="41.7208966" lon="12.6958046"><ele>508.99999999999994</ele><time>2026-04-06T12:46:08.708Z</time></trkpt><trkpt lat="41.7208331" lon="12.6958005"><ele>509.0</ele><time>2026-04-06T12:46:15.621Z</time></trkpt><trkpt lat="41.720768" lon="12.6957976"><ele>508.99999999999994</ele><time>2026-04-06T12:46:22.583Z</time></trkpt><trkpt lat="41.7206951" lon="12.6957701"><ele>508.99999999999994</ele><time>2026-04-06T12:46:26.649Z</time></trkpt><trkpt lat="41.7206238" lon="12.6958014"><ele>509.0</ele><time>2026-04-06T12:46:31.75Z</time></trkpt><trkpt lat="41.7205526" lon="12.6958122"><ele>508.99999999999994</ele><time>2026-04-06T12:46:37.579Z</time></trkpt><trkpt lat="41.7204901" lon="12.6958375"><ele>508.99999999999994</ele><time>2026-04-06T12:46:45.703Z</time></trkpt><trkpt lat="41.7204199" lon="12.6958367"><ele>508.99999999999994</ele><time>2026-04-06T12:46:50.649Z</time></trkpt><trkpt lat="41.7203592" lon="12.6958041"><ele>509.0</ele><time>2026-04-06T12:46:55.692Z</time></trkpt><trkpt lat="41.7202976" lon="12.6957655"><ele>508.99999999999994</ele><time>2026-04-06T12:47:00.6Z</time></trkpt><trkpt lat="41.7202821" lon="12.6956721"><ele>508.99999999999994</ele><time>2026-04-06T12:47:06.67Z</time></trkpt><trkpt lat="41.7202641" lon="12.695584"><ele>509.0</ele><time>2026-04-06T12:47:15.671Z</time></trkpt><trkpt lat="41.7201903" lon="12.6955978"><ele>508.99999999999994</ele><time>2026-04-06T12:47:23.479Z</time></trkpt><trkpt lat="41.720131" lon="12.6956632"><ele>508.99999999999994</ele><time>2026-04-06T12:47:28.734Z</time></trkpt><trkpt lat="41.7200642" lon="12.6956735"><ele>508.2857142857142</ele><time>2026-04-06T12:47:32.686Z</time></trkpt><trkpt lat="41.7199919" lon="12.6956988"><ele>507.57142857142856</ele><time>2026-04-06T12:47:39.644Z</time></trkpt><trkpt lat="41.7199286" lon="12.6957029"><ele>506.85714285714283</ele><time>2026-04-06T12:47:48.713Z</time></trkpt><trkpt lat="41.7198605" lon="12.6957124"><ele>506.1428571428571</ele><time>2026-04-06T12:47:53.653Z</time></trkpt><trkpt lat="41.7197825" lon="12.6957168"><ele>505.42857142857144</ele><time>2026-04-06T12:47:58.644Z</time></trkpt><trkpt lat="41.7197165" lon="12.6957404"><ele>504.7142857142857</ele><time>2026-04-06T12:48:03.646Z</time></trkpt><trkpt lat="41.7196394" lon="12.695744"><ele>504.0</ele><time>2026-04-06T12:48:09.681Z</time></trkpt><trkpt lat="41.71957" lon="12.6957555"><ele>504.0</ele><time>2026-04-06T12:48:16.706Z</time></trkpt><trkpt lat="41.7195105" lon="12.695716"><ele>504.0</ele><time>2026-04-06T12:48:24.646Z</time></trkpt><trkpt lat="41.7194831" lon="12.6956344"><ele>504.0</ele><time>2026-04-06T12:48:31.649Z</time></trkpt><trkpt lat="41.7194876" lon="12.6955428"><ele>504.0</ele><time>2026-04-06T12:48:39.649Z</time></trkpt><trkpt lat="41.7195123" lon="12.6954592"><ele>504.0</ele><time>2026-04-06T12:48:45.681Z</time></trkpt><trkpt lat="41.7194862" lon="12.6953699"><ele>504.0</ele><time>2026-04-06T12:48:54.689Z</time></trkpt><trkpt lat="41.719438" lon="12.6953012"><ele>504.0</ele><time>2026-04-06T12:49:01.648Z</time></trkpt><trkpt lat="41.7193821" lon="12.6952563"><ele>504.42857142857144</ele><time>2026-04-06T12:49:09.729Z</time></trkpt><trkpt lat="41.7193415" lon="12.6951726"><ele>504.8571428571429</ele><time>2026-04-06T12:49:16.647Z</time></trkpt><trkpt lat="41.7193181" lon="12.6950919"><ele>505.2857142857143</ele><time>2026-04-06T12:49:23.671Z</time></trkpt><trkpt lat="41.719273" lon="12.6950309"><ele>505.7142857142857</ele><time>2026-04-06T12:49:28.721Z</time></trkpt><trkpt lat="41.7192234" lon="12.6949674"><ele>506.14285714285717</ele><time>2026-04-06T12:49:34.649Z</time></trkpt><trkpt lat="41.7191678" lon="12.6949182"><ele>506.57142857142856</ele><time>2026-04-06T12:49:41.452Z</time></trkpt><trkpt lat="41.7191117" lon="12.694878"><ele>507.0</ele><time>2026-04-06T12:49:49.689Z</time></trkpt><trkpt lat="41.7190434" lon="12.6948755"><ele>507.0</ele><time>2026-04-06T12:49:57.733Z</time></trkpt><trkpt lat="41.718954" lon="12.6948998"><ele>507.0</ele><time>2026-04-06T12:50:03.685Z</time></trkpt><trkpt lat="41.7188851" lon="12.6948782"><ele>507.0</ele><time>2026-04-06T12:50:12.649Z</time></trkpt><trkpt lat="41.7188219" lon="12.6948113"><ele>507.0</ele><time>2026-04-06T12:50:21.632Z</time></trkpt><trkpt lat="41.7187725" lon="12.6947524"><ele>507.0</ele><time>2026-04-06T12:50:28.751Z</time></trkpt><trkpt lat="41.7187077" lon="12.6947595"><ele>507.0</ele><time>2026-04-06T12:50:36.614Z</time></trkpt><trkpt lat="41.7186394" lon="12.6947448"><ele>507.0</ele><time>2026-04-06T12:50:43.703Z</time></trkpt><trkpt lat="41.7185723" lon="12.6947442"><ele>506.0</ele><time>2026-04-06T12:50:48.661Z</time></trkpt><trkpt lat="41.7184881" lon="12.694732"><ele>505.0</ele><time>2026-04-06T12:50:53.647Z</time></trkpt><trkpt lat="41.7184397" lon="12.6946713"><ele>504.0</ele><time>2026-04-06T12:51:04.671Z</time></trkpt><trkpt lat="41.7184016" lon="12.6945934"><ele>503.0</ele><time>2026-04-06T12:51:10.647Z</time></trkpt><trkpt lat="41.7183489" lon="12.6945405"><ele>502.0</ele><time>2026-04-06T12:51:16.15Z</time></trkpt><trkpt lat="41.7182856" lon="12.6945041"><ele>501.0</ele><time>2026-04-06T12:51:24.487Z</time></trkpt><trkpt lat="41.7182255" lon="12.6944704"><ele>500.0</ele><time>2026-04-06T12:51:32.666Z</time></trkpt><trkpt lat="41.7181738" lon="12.6944209"><ele>500.0</ele><time>2026-04-06T12:51:44.713Z</time></trkpt><trkpt lat="41.7181217" lon="12.6943434"><ele>500.0</ele><time>2026-04-06T12:51:54.732Z</time></trkpt><trkpt lat="41.7180628" lon="12.6942976"><ele>500.0</ele><time>2026-04-06T12:52:03.733Z</time></trkpt><trkpt lat="41.71802" lon="12.6942206"><ele>500.0</ele><time>2026-04-06T12:52:11.015Z</time></trkpt><trkpt lat="41.7179827" lon="12.6941422"><ele>500.0</ele><time>2026-04-06T12:52:18.734Z</time></trkpt><trkpt lat="41.7179493" lon="12.6940625"><ele>500.0</ele><time>2026-04-06T12:52:27.665Z</time></trkpt><trkpt lat="41.7178914" lon="12.6940236"><ele>500.0</ele><time>2026-04-06T12:52:39.65Z</time></trkpt><trkpt lat="41.7178309" lon="12.6939975"><ele>500.0</ele><time>2026-04-06T12:52:50.717Z</time></trkpt><trkpt lat="41.7177613" lon="12.6939972"><ele>500.0</ele><time>2026-04-06T12:52:59.661Z</time></trkpt><trkpt lat="41.7176956" lon="12.6939975"><ele>500.0</ele><time>2026-04-06T12:53:07.732Z</time></trkpt><trkpt lat="41.7176232" lon="12.6939793"><ele>500.0</ele><time>2026-04-06T12:53:17.722Z</time></trkpt><trkpt lat="41.7175605" lon="12.6939624"><ele>500.0</ele><time>2026-04-06T12:53:22.662Z</time></trkpt><trkpt lat="41.7174882" lon="12.6939447"><ele>500.0</ele><time>2026-04-06T12:53:30.675Z</time></trkpt><trkpt lat="41.7174191" lon="12.6939281"><ele>500.0</ele><time>2026-04-06T12:53:34.65Z</time></trkpt><trkpt lat="41.7173422" lon="12.6939183"><ele>495.57142857142856</ele><time>2026-04-06T12:53:38.716Z</time></trkpt><trkpt lat="41.7172753" lon="12.6939144"><ele>491.14285714285717</ele><time>2026-04-06T12:53:45.714Z</time></trkpt><trkpt lat="41.7172079" lon="12.6939153"><ele>486.7142857142857</ele><time>2026-04-06T12:53:50.763Z</time></trkpt><trkpt lat="41.7171405" lon="12.6939216"><ele>482.2857142857143</ele><time>2026-04-06T12:53:57.679Z</time></trkpt><trkpt lat="41.7170732" lon="12.6939306"><ele>477.8571428571429</ele><time>2026-04-06T12:54:02.729Z</time></trkpt><trkpt lat="41.7170004" lon="12.6939141"><ele>473.42857142857144</ele><time>2026-04-06T12:54:07.668Z</time></trkpt><trkpt lat="41.7169374" lon="12.6938798"><ele>469.0</ele><time>2026-04-06T12:54:11.73Z</time></trkpt><trkpt lat="41.716877" lon="12.6938438"><ele>466.42857142857144</ele><time>2026-04-06T12:54:21.719Z</time></trkpt><trkpt lat="41.7168206" lon="12.6937856"><ele>463.8571428571429</ele><time>2026-04-06T12:54:30.72Z</time></trkpt><trkpt lat="41.7167608" lon="12.6937351"><ele>461.2857142857143</ele><time>2026-04-06T12:54:36.65Z</time></trkpt><trkpt lat="41.7167091" lon="12.6936613"><ele>458.7142857142857</ele><time>2026-04-06T12:54:43.672Z</time></trkpt><trkpt lat="41.7166485" lon="12.6936207"><ele>456.14285714285717</ele><time>2026-04-06T12:54:49.702Z</time></trkpt><trkpt lat="41.7165825" lon="12.6936319"><ele>453.57142857142856</ele><time>2026-04-06T12:54:57.724Z</time></trkpt><trkpt lat="41.7165158" lon="12.6936164"><ele>451.0</ele><time>2026-04-06T12:55:02.604Z</time></trkpt><trkpt lat="41.7164499" lon="12.6935748"><ele>456.1428571428571</ele><time>2026-04-06T12:55:10.272Z</time></trkpt><trkpt lat="41.7163996" lon="12.6935101"><ele>461.28571428571433</ele><time>2026-04-06T12:55:16.714Z</time></trkpt><trkpt lat="41.7163461" lon="12.6934543"><ele>466.42857142857144</ele><time>2026-04-06T12:55:20.666Z</time></trkpt><trkpt lat="41.7162851" lon="12.6934184"><ele>471.57142857142856</ele><time>2026-04-06T12:55:24.727Z</time></trkpt><trkpt lat="41.7162209" lon="12.6933755"><ele>476.71428571428567</ele><time>2026-04-06T12:55:29.623Z</time></trkpt><trkpt lat="41.7161648" lon="12.6933136"><ele>481.8571428571429</ele><time>2026-04-06T12:55:42.647Z</time></trkpt><trkpt lat="41.7161376" lon="12.693237"><ele>487.0</ele><time>2026-04-06T12:55:54.695Z</time></trkpt><trkpt lat="41.7161948" lon="12.6931879"><ele>487.0</ele><time>2026-04-06T12:58:27.68Z</time></trkpt><trkpt lat="41.7161983" lon="12.6930822"><ele>487.0</ele><time>2026-04-06T13:12:37.75Z</time></trkpt><trkpt lat="41.7161587" lon="12.6930064"><ele>487.0</ele><time>2026-04-06T13:12:45.681Z</time></trkpt><trkpt lat="41.7161244" lon="12.6929264"><ele>487.0</ele><time>2026-04-06T13:12:55.671Z</time></trkpt><trkpt lat="41.7160868" lon="12.6928551"><ele>487.0</ele><time>2026-04-06T13:13:02.696Z</time></trkpt><trkpt lat="41.7160398" lon="12.6927986"><ele>487.0</ele><time>2026-04-06T13:13:09.753Z</time></trkpt><trkpt lat="41.7159705" lon="12.6927739"><ele>487.0</ele><time>2026-04-06T13:13:16.636Z</time></trkpt><trkpt lat="41.7158994" lon="12.6927266"><ele>487.0</ele><time>2026-04-06T13:13:24.76Z</time></trkpt><trkpt lat="41.7158359" lon="12.6927096"><ele>487.0</ele><time>2026-04-06T13:13:29.7Z</time></trkpt><trkpt lat="41.7157749" lon="12.6926847"><ele>487.0</ele><time>2026-04-06T13:13:35.738Z</time></trkpt><trkpt lat="41.7157018" lon="12.692672"><ele>487.0</ele><time>2026-04-06T13:13:41.787Z</time></trkpt><trkpt lat="41.715642" lon="12.6926426"><ele>487.0</ele><time>2026-04-06T13:13:47.695Z</time></trkpt><trkpt lat="41.7155768" lon="12.692628"><ele>487.0</ele><time>2026-04-06T13:13:53.709Z</time></trkpt><trkpt lat="41.7155057" lon="12.6925872"><ele>487.0</ele><time>2026-04-06T13:13:59.668Z</time></trkpt><trkpt lat="41.7154388" lon="12.6925744"><ele>487.0</ele><time>2026-04-06T13:14:12.087Z</time></trkpt><trkpt lat="41.7153771" lon="12.6925554"><ele>487.0</ele><time>2026-04-06T13:14:18.675Z</time></trkpt><trkpt lat="41.7153207" lon="12.6925005"><ele>487.0</ele><time>2026-04-06T13:14:25.684Z</time></trkpt><trkpt lat="41.7152683" lon="12.6924356"><ele>487.0</ele><time>2026-04-06T13:14:31.721Z</time></trkpt><trkpt lat="41.715219" lon="12.6923578"><ele>487.0</ele><time>2026-04-06T13:14:36.661Z</time></trkpt><trkpt lat="41.7151712" lon="12.692292"><ele>487.0</ele><time>2026-04-06T13:14:42.695Z</time></trkpt><trkpt lat="41.7151204" lon="12.6922361"><ele>487.0</ele><time>2026-04-06T13:14:52.687Z</time></trkpt><trkpt lat="41.7150663" lon="12.6921897"><ele>487.8571428571429</ele><time>2026-04-06T13:15:00.701Z</time></trkpt><trkpt lat="41.7150076" lon="12.6921436"><ele>488.71428571428567</ele><time>2026-04-06T13:15:07.726Z</time></trkpt><trkpt lat="41.7149457" lon="12.6921155"><ele>489.57142857142856</ele><time>2026-04-06T13:15:15.739Z</time></trkpt><trkpt lat="41.7148853" lon="12.6920836"><ele>490.42857142857144</ele><time>2026-04-06T13:15:23.072Z</time></trkpt><trkpt lat="41.7148263" lon="12.692042"><ele>491.28571428571433</ele><time>2026-04-06T13:15:31.656Z</time></trkpt><trkpt lat="41.7148051" lon="12.6919204"><ele>492.1428571428571</ele><time>2026-04-06T13:15:52.732Z</time></trkpt><trkpt lat="41.7147939" lon="12.6918332"><ele>493.0</ele><time>2026-04-06T13:16:01.267Z</time></trkpt><trkpt lat="41.7147842" lon="12.6917451"><ele>493.0</ele><time>2026-04-06T13:16:12.71Z</time></trkpt><trkpt lat="41.7147549" lon="12.691666"><ele>493.0</ele><time>2026-04-06T13:16:22.699Z</time></trkpt><trkpt lat="41.7147324" lon="12.6915726"><ele>493.0</ele><time>2026-04-06T13:16:30.712Z</time></trkpt><trkpt lat="41.7146701" lon="12.691553"><ele>493.0</ele><time>2026-04-06T13:16:37.738Z</time></trkpt><trkpt lat="41.7146274" lon="12.6914836"><ele>493.0</ele><time>2026-04-06T13:16:49.709Z</time></trkpt><trkpt lat="41.7146148" lon="12.6914005"><ele>493.0</ele><time>2026-04-06T13:16:58.704Z</time></trkpt><trkpt lat="41.714604" lon="12.6913074"><ele>493.0</ele><time>2026-04-06T13:17:05.786Z</time></trkpt><trkpt lat="41.714622" lon="12.6912253"><ele>493.0</ele><time>2026-04-06T13:17:17.694Z</time></trkpt><trkpt lat="41.7145544" lon="12.6912133"><ele>493.0</ele><time>2026-04-06T13:17:24.719Z</time></trkpt><trkpt lat="41.714486" lon="12.6912071"><ele>493.0</ele><time>2026-04-06T13:17:36.787Z</time></trkpt><trkpt lat="41.7144211" lon="12.6911767"><ele>493.0</ele><time>2026-04-06T13:17:45.685Z</time></trkpt><trkpt lat="41.7143572" lon="12.691144"><ele>493.0</ele><time>2026-04-06T13:17:53.698Z</time></trkpt><trkpt lat="41.7142946" lon="12.6911112"><ele>493.0</ele><time>2026-04-06T13:17:58.651Z</time></trkpt><trkpt lat="41.7142378" lon="12.6910625"><ele>493.0</ele><time>2026-04-06T13:18:11.7Z</time></trkpt><trkpt lat="41.7141696" lon="12.6910373"><ele>493.2857142857143</ele><time>2026-04-06T13:18:19.713Z</time></trkpt><trkpt lat="41.7140937" lon="12.6910212"><ele>493.57142857142856</ele><time>2026-04-06T13:18:23.665Z</time></trkpt><trkpt lat="41.7140285" lon="12.6909983"><ele>493.85714285714283</ele><time>2026-04-06T13:18:29.702Z</time></trkpt><trkpt lat="41.7139596" lon="12.6910038"><ele>494.1428571428571</ele><time>2026-04-06T13:18:36.658Z</time></trkpt><trkpt lat="41.7138968" lon="12.6909881"><ele>494.42857142857144</ele><time>2026-04-06T13:18:43.166Z</time></trkpt><trkpt lat="41.7138747" lon="12.6908941"><ele>494.71428571428567</ele><time>2026-04-06T13:18:49.68Z</time></trkpt><trkpt lat="41.7138824" lon="12.6907791"><ele>494.99999999999994</ele><time>2026-04-06T13:18:56.275Z</time></trkpt><trkpt lat="41.713879" lon="12.6906869"><ele>494.99999999999994</ele><time>2026-04-06T13:19:01.755Z</time></trkpt><trkpt lat="41.7138049" lon="12.6906743"><ele>495.0</ele><time>2026-04-06T13:19:07.683Z</time></trkpt><trkpt lat="41.7137404" lon="12.6906125"><ele>494.99999999999994</ele><time>2026-04-06T13:19:11.648Z</time></trkpt><trkpt lat="41.7136745" lon="12.6905656"><ele>494.99999999999994</ele><time>2026-04-06T13:19:16.71Z</time></trkpt><trkpt lat="41.7136092" lon="12.6905406"><ele>495.0</ele><time>2026-04-06T13:19:24.698Z</time></trkpt><trkpt lat="41.7135471" lon="12.6904954"><ele>494.99999999999994</ele><time>2026-04-06T13:19:32.71Z</time></trkpt><trkpt lat="41.7134798" lon="12.6904713"><ele>494.99999999999994</ele><time>2026-04-06T13:19:38.748Z</time></trkpt><trkpt lat="41.7134133" lon="12.6904482"><ele>494.2857142857142</ele><time>2026-04-06T13:19:45.665Z</time></trkpt><trkpt lat="41.7133507" lon="12.6904249"><ele>493.57142857142856</ele><time>2026-04-06T13:19:51.702Z</time></trkpt><trkpt lat="41.713281" lon="12.6904091"><ele>492.85714285714283</ele><time>2026-04-06T13:19:57.74Z</time></trkpt><trkpt lat="41.7132095" lon="12.6903827"><ele>492.1428571428571</ele><time>2026-04-06T13:20:03.668Z</time></trkpt><trkpt lat="41.7131458" lon="12.6903469"><ele>491.42857142857144</ele><time>2026-04-06T13:20:10.693Z</time></trkpt><trkpt lat="41.7130816" lon="12.6903232"><ele>490.7142857142857</ele><time>2026-04-06T13:20:19.695Z</time></trkpt><trkpt lat="41.7130131" lon="12.690296"><ele>490.0</ele><time>2026-04-06T13:20:25.65Z</time></trkpt><trkpt lat="41.7129442" lon="12.6902769"><ele>489.57142857142856</ele><time>2026-04-06T13:20:32.654Z</time></trkpt><trkpt lat="41.7128765" lon="12.6902448"><ele>489.1428571428571</ele><time>2026-04-06T13:20:38.687Z</time></trkpt><trkpt lat="41.7128126" lon="12.6902257"><ele>488.7142857142857</ele><time>2026-04-06T13:20:46.701Z</time></trkpt><trkpt lat="41.7127556" lon="12.6901842"><ele>488.2857142857143</ele><time>2026-04-06T13:20:54.756Z</time></trkpt><trkpt lat="41.7126932" lon="12.6901654"><ele>487.85714285714283</ele><time>2026-04-06T13:21:02.757Z</time></trkpt><trkpt lat="41.7126484" lon="12.6902486"><ele>487.42857142857144</ele><time>2026-04-06T13:21:16.671Z</time></trkpt><trkpt lat="41.7126058" lon="12.690313"><ele>487.0</ele><time>2026-04-06T13:21:23.697Z</time></trkpt><trkpt lat="41.7125337" lon="12.6903493"><ele>487.0</ele><time>2026-04-06T13:21:29.722Z</time></trkpt><trkpt lat="41.7124599" lon="12.6903516"><ele>487.0</ele><time>2026-04-06T13:21:35.663Z</time></trkpt><trkpt lat="41.712393" lon="12.6903661"><ele>487.0</ele><time>2026-04-06T13:21:41.702Z</time></trkpt><trkpt lat="41.7123284" lon="12.6903454"><ele>487.0</ele><time>2026-04-06T13:21:51.692Z</time></trkpt><trkpt lat="41.7122562" lon="12.690326"><ele>487.0</ele><time>2026-04-06T13:22:00.694Z</time></trkpt><trkpt lat="41.7121906" lon="12.6903051"><ele>487.0</ele><time>2026-04-06T13:22:07.72Z</time></trkpt><trkpt lat="41.7121263" lon="12.6902885"><ele>487.0</ele><time>2026-04-06T13:22:19.686Z</time></trkpt><trkpt lat="41.712061" lon="12.6902784"><ele>487.0</ele><time>2026-04-06T13:22:53.717Z</time></trkpt><trkpt lat="41.7120034" lon="12.6903161"><ele>487.0</ele><time>2026-04-06T13:22:59.652Z</time></trkpt><trkpt lat="41.7119417" lon="12.690339"><ele>487.0</ele><time>2026-04-06T13:27:53.723Z</time></trkpt><trkpt lat="41.7118793" lon="12.6903151"><ele>487.0</ele><time>2026-04-06T13:28:01.269Z</time></trkpt><trkpt lat="41.7118125" lon="12.6902919"><ele>487.0</ele><time>2026-04-06T13:28:06.649Z</time></trkpt><trkpt lat="41.7117386" lon="12.6902769"><ele>487.0</ele><time>2026-04-06T13:28:12.672Z</time></trkpt><trkpt lat="41.7116728" lon="12.6902537"><ele>487.0</ele><time>2026-04-06T13:28:19.739Z</time></trkpt><trkpt lat="41.7116062" lon="12.6902487"><ele>485.42857142857144</ele><time>2026-04-06T13:28:27.752Z</time></trkpt><trkpt lat="41.7115449" lon="12.6902198"><ele>483.85714285714283</ele><time>2026-04-06T13:28:35.655Z</time></trkpt><trkpt lat="41.7114788" lon="12.6901951"><ele>482.2857142857143</ele><time>2026-04-06T13:28:43.701Z</time></trkpt><trkpt lat="41.7114163" lon="12.6901785"><ele>480.7142857142857</ele><time>2026-04-06T13:28:49.634Z</time></trkpt><trkpt lat="41.7113224" lon="12.6901453"><ele>479.1428571428571</ele><time>2026-04-06T13:28:52.65Z</time></trkpt><trkpt lat="41.7112539" lon="12.690115"><ele>477.57142857142856</ele><time>2026-04-06T13:28:55.651Z</time></trkpt><trkpt lat="41.7111871" lon="12.6900922"><ele>476.0</ele><time>2026-04-06T13:29:03.653Z</time></trkpt><trkpt lat="41.7111186" lon="12.690081"><ele>475.49999999999994</ele><time>2026-04-06T13:29:11.782Z</time></trkpt><trkpt lat="41.7110097" lon="12.6900388"><ele>475.0</ele><time>2026-04-06T13:29:23.773Z</time></trkpt><trkpt lat="41.710942" lon="12.6900088"><ele>474.5</ele><time>2026-04-06T13:29:31.429Z</time></trkpt><trkpt lat="41.7108724" lon="12.6899693"><ele>474.0</ele><time>2026-04-06T13:29:34.047Z</time></trkpt><trkpt lat="41.7108016" lon="12.6899588"><ele>473.49999999999994</ele><time>2026-04-06T13:29:39.72Z</time></trkpt><trkpt lat="41.7107362" lon="12.6899427"><ele>473.0</ele><time>2026-04-06T13:29:45.687Z</time></trkpt><trkpt lat="41.7106653" lon="12.6899189"><ele>473.0</ele><time>2026-04-06T13:29:52.683Z</time></trkpt><trkpt lat="41.7106005" lon="12.6898993"><ele>473.0</ele><time>2026-04-06T13:29:58.592Z</time></trkpt><trkpt lat="41.7105346" lon="12.6898773"><ele>473.0</ele><time>2026-04-06T13:30:04.879Z</time></trkpt><trkpt lat="41.7104688" lon="12.6898544"><ele>473.0</ele><time>2026-04-06T13:30:11.582Z</time></trkpt><trkpt lat="41.7104028" lon="12.6898369"><ele>473.0</ele><time>2026-04-06T13:30:19.461Z</time></trkpt><trkpt lat="41.7103381" lon="12.6898186"><ele>473.0</ele><time>2026-04-06T13:30:27.727Z</time></trkpt><trkpt lat="41.7102691" lon="12.689792"><ele>473.0</ele><time>2026-04-06T13:30:36.146Z</time></trkpt><trkpt lat="41.7101639" lon="12.6897574"><ele>471.8571428571429</ele><time>2026-04-06T13:30:42.777Z</time></trkpt><trkpt lat="41.7100978" lon="12.6897453"><ele>470.71428571428567</ele><time>2026-04-06T13:30:50.598Z</time></trkpt><trkpt lat="41.7100332" lon="12.6897297"><ele>469.57142857142856</ele><time>2026-04-06T13:30:53.742Z</time></trkpt><trkpt lat="41.7099395" lon="12.689799"><ele>468.42857142857144</ele><time>2026-04-06T13:31:14.707Z</time></trkpt><trkpt lat="41.7099037" lon="12.6898804"><ele>467.28571428571433</ele><time>2026-04-06T13:31:20.648Z</time></trkpt><trkpt lat="41.7098933" lon="12.6899669"><ele>466.1428571428571</ele><time>2026-04-06T13:31:28.571Z</time></trkpt><trkpt lat="41.7099096" lon="12.6900563"><ele>465.0</ele><time>2026-04-06T13:31:36.662Z</time></trkpt><trkpt lat="41.709957" lon="12.6901148"><ele>465.0</ele><time>2026-04-06T13:31:45.663Z</time></trkpt><trkpt lat="41.7099541" lon="12.6902104"><ele>465.0</ele><time>2026-04-06T13:31:50.712Z</time></trkpt><trkpt lat="41.7099537" lon="12.6902964"><ele>465.0</ele><time>2026-04-06T13:31:55.725Z</time></trkpt><trkpt lat="41.7099476" lon="12.6904305"><ele>465.0</ele><time>2026-04-06T13:32:12.667Z</time></trkpt><trkpt lat="41.7099478" lon="12.6905234"><ele>465.0</ele><time>2026-04-06T13:32:16.728Z</time></trkpt><trkpt lat="41.7099307" lon="12.6906129"><ele>465.0</ele><time>2026-04-06T13:32:21.668Z</time></trkpt><trkpt lat="41.7099173" lon="12.6907048"><ele>465.0</ele><time>2026-04-06T13:32:28.694Z</time></trkpt><trkpt lat="41.7098905" lon="12.6907949"><ele>465.57142857142856</ele><time>2026-04-06T13:32:34.731Z</time></trkpt><trkpt lat="41.7099204" lon="12.6908745"><ele>466.14285714285717</ele><time>2026-04-06T13:32:42.649Z</time></trkpt><trkpt lat="41.7099362" lon="12.6909762"><ele>466.7142857142857</ele><time>2026-04-06T13:32:51.727Z</time></trkpt><trkpt lat="41.7099644" lon="12.6910603"><ele>467.2857142857143</ele><time>2026-04-06T13:32:57.672Z</time></trkpt><trkpt lat="41.7100183" lon="12.6911168"><ele>467.8571428571429</ele><time>2026-04-06T13:33:06.674Z</time></trkpt><trkpt lat="41.7100871" lon="12.6911834"><ele>468.42857142857144</ele><time>2026-04-06T13:34:39.653Z</time></trkpt><trkpt lat="41.71002" lon="12.6911476"><ele>469.0</ele><time>2026-04-06T13:34:42.727Z</time></trkpt><trkpt lat="41.7099616" lon="12.6910805"><ele>469.00000000000006</ele><time>2026-04-06T13:34:47.667Z</time></trkpt><trkpt lat="41.7099696" lon="12.6909866"><ele>469.0</ele><time>2026-04-06T13:35:26.646Z</time></trkpt><trkpt lat="41.7099688" lon="12.690894"><ele>469.0</ele><time>2026-04-06T13:35:34.651Z</time></trkpt><trkpt lat="41.7099753" lon="12.6907242"><ele>469.0</ele><time>2026-04-06T13:35:42.664Z</time></trkpt><trkpt lat="41.7099711" lon="12.6906279"><ele>469.00000000000006</ele><time>2026-04-06T13:35:46.646Z</time></trkpt><trkpt lat="41.7099763" lon="12.6905418"><ele>469.0</ele><time>2026-04-06T13:36:01.654Z</time></trkpt><trkpt lat="41.709954" lon="12.6904588"><ele>469.0</ele><time>2026-04-06T13:36:11.646Z</time></trkpt><trkpt lat="41.709936" lon="12.6903655"><ele>469.0</ele><time>2026-04-06T13:36:20.588Z</time></trkpt><trkpt lat="41.709914" lon="12.6902832"><ele>469.0</ele><time>2026-04-06T13:36:25.696Z</time></trkpt><trkpt lat="41.7099114" lon="12.6901826"><ele>469.0</ele><time>2026-04-06T13:36:31.112Z</time></trkpt><trkpt lat="41.7099066" lon="12.6900952"><ele>469.0</ele><time>2026-04-06T13:36:37.653Z</time></trkpt><trkpt lat="41.7098934" lon="12.6899894"><ele>469.0</ele><time>2026-04-06T13:36:39.647Z</time></trkpt><trkpt lat="41.7098839" lon="12.6898852"><ele>469.0</ele><time>2026-04-06T13:36:41.645Z</time></trkpt><trkpt lat="41.7098667" lon="12.6897997"><ele>468.42857142857144</ele><time>2026-04-06T13:36:48.649Z</time></trkpt><trkpt lat="41.7099115" lon="12.68974"><ele>467.8571428571429</ele><time>2026-04-06T13:37:03.678Z</time></trkpt><trkpt lat="41.7099793" lon="12.6897373"><ele>467.2857142857143</ele><time>2026-04-06T13:37:12.679Z</time></trkpt><trkpt lat="41.7100431" lon="12.6897592"><ele>466.7142857142857</ele><time>2026-04-06T13:37:17.729Z</time></trkpt><trkpt lat="41.7101149" lon="12.6897809"><ele>466.14285714285717</ele><time>2026-04-06T13:37:22.669Z</time></trkpt><trkpt lat="41.7101774" lon="12.6898123"><ele>465.57142857142856</ele><time>2026-04-06T13:37:29.695Z</time></trkpt><trkpt lat="41.7102366" lon="12.6898504"><ele>465.0</ele><time>2026-04-06T13:37:39.684Z</time></trkpt><trkpt lat="41.7103333" lon="12.6898713"><ele>466.3333333333333</ele><time>2026-04-06T13:37:45.647Z</time></trkpt><trkpt lat="41.7104572" lon="12.6899101"><ele>467.66666666666663</ele><time>2026-04-06T13:38:00.651Z</time></trkpt><trkpt lat="41.7105222" lon="12.6899291"><ele>469.0</ele><time>2026-04-06T13:38:05.701Z</time></trkpt><trkpt lat="41.7104684" lon="12.6898774"><ele>470.3333333333333</ele><time>2026-04-06T13:39:16.646Z</time></trkpt><trkpt lat="41.7104029" lon="12.6898505"><ele>471.66666666666663</ele><time>2026-04-06T13:39:23.645Z</time></trkpt><trkpt lat="41.7103353" lon="12.6898297"><ele>473.0</ele><time>2026-04-06T13:39:36.631Z</time></trkpt><trkpt lat="41.7102726" lon="12.6898063"><ele>471.8571428571429</ele><time>2026-04-06T13:39:44.049Z</time></trkpt><trkpt lat="41.7102069" lon="12.6897716"><ele>470.71428571428567</ele><time>2026-04-06T13:39:52.651Z</time></trkpt><trkpt lat="41.7101458" lon="12.6897493"><ele>469.57142857142856</ele><time>2026-04-06T13:40:02.722Z</time></trkpt><trkpt lat="41.7100775" lon="12.6897194"><ele>468.42857142857144</ele><time>2026-04-06T13:40:07.664Z</time></trkpt><trkpt lat="41.7100052" lon="12.6896951"><ele>467.28571428571433</ele><time>2026-04-06T13:40:11.726Z</time></trkpt><trkpt lat="41.7099418" lon="12.6896976"><ele>466.1428571428571</ele><time>2026-04-06T13:40:20.727Z</time></trkpt><trkpt lat="41.7099227" lon="12.6897872"><ele>465.0</ele><time>2026-04-06T13:40:43.67Z</time></trkpt><trkpt lat="41.7099037" lon="12.6898749"><ele>465.0</ele><time>2026-04-06T13:40:51.683Z</time></trkpt><trkpt lat="41.7098813" lon="12.689981"><ele>465.0</ele><time>2026-04-06T13:40:56.732Z</time></trkpt><trkpt lat="41.709898" lon="12.6900818"><ele>465.0</ele><time>2026-04-06T13:41:05.491Z</time></trkpt><trkpt lat="41.7099128" lon="12.6901661"><ele>465.0</ele><time>2026-04-06T13:41:10.673Z</time></trkpt><trkpt lat="41.7099244" lon="12.6902544"><ele>465.0</ele><time>2026-04-06T13:41:18.609Z</time></trkpt><trkpt lat="41.7099349" lon="12.6903435"><ele>465.0</ele><time>2026-04-06T13:41:24.724Z</time></trkpt><trkpt lat="41.7099387" lon="12.6904277"><ele>465.0</ele><time>2026-04-06T13:41:27.688Z</time></trkpt><trkpt lat="41.7099442" lon="12.6905228"><ele>465.57142857142856</ele><time>2026-04-06T13:41:34.713Z</time></trkpt><trkpt lat="41.7099475" lon="12.6906109"><ele>466.14285714285717</ele><time>2026-04-06T13:41:40.749Z</time></trkpt><trkpt lat="41.7099473" lon="12.6907067"><ele>466.7142857142857</ele><time>2026-04-06T13:41:48.655Z</time></trkpt><trkpt lat="41.7099496" lon="12.6907996"><ele>467.2857142857143</ele><time>2026-04-06T13:41:53.629Z</time></trkpt><trkpt lat="41.7099561" lon="12.6908871"><ele>467.8571428571429</ele><time>2026-04-06T13:41:56.667Z</time></trkpt><trkpt lat="41.7099625" lon="12.690983"><ele>468.42857142857144</ele><time>2026-04-06T13:42:00.932Z</time></trkpt><trkpt lat="41.7099794" lon="12.6910666"><ele>469.0</ele><time>2026-04-06T13:42:05.652Z</time></trkpt><trkpt lat="41.7100225" lon="12.6911455"><ele>465.57142857142856</ele><time>2026-04-06T13:42:11.705Z</time></trkpt><trkpt lat="41.7100561" lon="12.6912202"><ele>462.1428571428571</ele><time>2026-04-06T13:42:17.652Z</time></trkpt><trkpt lat="41.7100677" lon="12.6913083"><ele>458.7142857142857</ele><time>2026-04-06T13:42:23.67Z</time></trkpt><trkpt lat="41.7101314" lon="12.6913555"><ele>455.2857142857143</ele><time>2026-04-06T13:42:32.67Z</time></trkpt><trkpt lat="41.7101946" lon="12.6913852"><ele>451.85714285714283</ele><time>2026-04-06T13:42:39.696Z</time></trkpt><trkpt lat="41.7102663" lon="12.6913791"><ele>448.42857142857144</ele><time>2026-04-06T13:42:46.668Z</time></trkpt><trkpt lat="41.7103386" lon="12.6913582"><ele>445.0</ele><time>2026-04-06T13:42:54.734Z</time></trkpt><trkpt lat="41.7103979" lon="12.6913255"><ele>444.0</ele><time>2026-04-06T13:43:01.607Z</time></trkpt><trkpt lat="41.7104697" lon="12.691354"><ele>443.0</ele><time>2026-04-06T13:43:09.642Z</time></trkpt><trkpt lat="41.7105406" lon="12.6913793"><ele>442.0</ele><time>2026-04-06T13:43:15.699Z</time></trkpt><trkpt lat="41.710607" lon="12.691406"><ele>441.0</ele><time>2026-04-06T13:43:20.748Z</time></trkpt><trkpt lat="41.7106684" lon="12.6914316"><ele>440.0</ele><time>2026-04-06T13:43:29.638Z</time></trkpt><trkpt lat="41.7107293" lon="12.6914563"><ele>439.0</ele><time>2026-04-06T13:43:53.678Z</time></trkpt><trkpt lat="41.7107921" lon="12.6915122"><ele>438.0</ele><time>2026-04-06T13:43:59.778Z</time></trkpt><trkpt lat="41.7108394" lon="12.6915782"><ele>438.0</ele><time>2026-04-06T13:44:03.667Z</time></trkpt><trkpt lat="41.7108987" lon="12.6916389"><ele>438.0</ele><time>2026-04-06T13:44:11.679Z</time></trkpt><trkpt lat="41.7109603" lon="12.6916624"><ele>438.0</ele><time>2026-04-06T13:44:15.741Z</time></trkpt><trkpt lat="41.7110295" lon="12.6916843"><ele>438.0</ele><time>2026-04-06T13:44:20.781Z</time></trkpt><trkpt lat="41.7110945" lon="12.6916915"><ele>438.0</ele><time>2026-04-06T13:44:28.461Z</time></trkpt><trkpt lat="41.7111519" lon="12.6917375"><ele>438.0</ele><time>2026-04-06T13:44:33.636Z</time></trkpt><trkpt lat="41.7112169" lon="12.6917373"><ele>438.0</ele><time>2026-04-06T13:44:40.657Z</time></trkpt><trkpt lat="41.7112796" lon="12.6917776"><ele>435.2857142857143</ele><time>2026-04-06T13:44:47.594Z</time></trkpt><trkpt lat="41.7113463" lon="12.6917684"><ele>432.57142857142856</ele><time>2026-04-06T13:44:55.695Z</time></trkpt><trkpt lat="41.7114144" lon="12.6917885"><ele>429.85714285714283</ele><time>2026-04-06T13:45:00.699Z</time></trkpt><trkpt lat="41.7114727" lon="12.6918265"><ele>427.1428571428571</ele><time>2026-04-06T13:45:05.682Z</time></trkpt><trkpt lat="41.7115218" lon="12.69188"><ele>424.42857142857144</ele><time>2026-04-06T13:45:10.732Z</time></trkpt><trkpt lat="41.7115776" lon="12.6919445"><ele>421.71428571428567</ele><time>2026-04-06T13:45:16.769Z</time></trkpt><trkpt lat="41.711626" lon="12.6920127"><ele>419.0</ele><time>2026-04-06T13:45:25.66Z</time></trkpt><trkpt lat="41.7116504" lon="12.6920905"><ele>418.99999999999994</ele><time>2026-04-06T13:45:30.709Z</time></trkpt><trkpt lat="41.7116932" lon="12.6921735"><ele>419.0</ele><time>2026-04-06T13:45:37.734Z</time></trkpt><trkpt lat="41.7117468" lon="12.6922358"><ele>419.0</ele><time>2026-04-06T13:45:41.743Z</time></trkpt><trkpt lat="41.7117999" lon="12.6922826"><ele>419.0</ele><time>2026-04-06T13:45:46.715Z</time></trkpt><trkpt lat="41.7118354" lon="12.692363"><ele>419.0</ele><time>2026-04-06T13:45:52.662Z</time></trkpt><trkpt lat="41.7119043" lon="12.6923915"><ele>418.99999999999994</ele><time>2026-04-06T13:45:58.698Z</time></trkpt><trkpt lat="41.7119737" lon="12.6923767"><ele>419.0</ele><time>2026-04-06T13:46:04.23Z</time></trkpt><trkpt lat="41.7120458" lon="12.6923436"><ele>420.57142857142856</ele><time>2026-04-06T13:46:10.695Z</time></trkpt><trkpt lat="41.7121184" lon="12.692335"><ele>422.1428571428571</ele><time>2026-04-06T13:46:15.711Z</time></trkpt><trkpt lat="41.7121785" lon="12.6923774"><ele>423.71428571428567</ele><time>2026-04-06T13:46:21.749Z</time></trkpt><trkpt lat="41.7122412" lon="12.6924003"><ele>425.2857142857143</ele><time>2026-04-06T13:46:27.676Z</time></trkpt><trkpt lat="41.7123019" lon="12.6924349"><ele>426.8571428571429</ele><time>2026-04-06T13:46:36.676Z</time></trkpt><trkpt lat="41.7123683" lon="12.6924544"><ele>428.4285714285714</ele><time>2026-04-06T13:46:45.677Z</time></trkpt><trkpt lat="41.7124318" lon="12.6924884"><ele>430.0</ele><time>2026-04-06T13:46:51.491Z</time></trkpt><trkpt lat="41.7125209" lon="12.6925092"><ele>430.0</ele><time>2026-04-06T13:46:57.86Z</time></trkpt><trkpt lat="41.7125995" lon="12.6925138"><ele>430.0</ele><time>2026-04-06T13:47:02.214Z</time></trkpt><trkpt lat="41.7126702" lon="12.6925428"><ele>430.0</ele><time>2026-04-06T13:47:06.452Z</time></trkpt><trkpt lat="41.7127254" lon="12.6926005"><ele>430.0</ele><time>2026-04-06T13:47:10.696Z</time></trkpt><trkpt lat="41.7127698" lon="12.6926616"><ele>430.0</ele><time>2026-04-06T13:47:15.752Z</time></trkpt><trkpt lat="41.7128269" lon="12.6927193"><ele>430.0</ele><time>2026-04-06T13:47:22.664Z</time></trkpt><trkpt lat="41.712881" lon="12.6927646"><ele>430.0</ele><time>2026-04-06T13:47:27.647Z</time></trkpt><trkpt lat="41.7129434" lon="12.692807"><ele>424.57142857142856</ele><time>2026-04-06T13:47:32.827Z</time></trkpt><trkpt lat="41.7130082" lon="12.6928214"><ele>419.14285714285717</ele><time>2026-04-06T13:47:40.187Z</time></trkpt><trkpt lat="41.7130692" lon="12.6927671"><ele>413.7142857142857</ele><time>2026-04-06T13:47:46.256Z</time></trkpt><trkpt lat="41.7131296" lon="12.6927911"><ele>408.2857142857143</ele><time>2026-04-06T13:47:55.661Z</time></trkpt><trkpt lat="41.7132052" lon="12.6927934"><ele>402.8571428571429</ele><time>2026-04-06T13:48:01.652Z</time></trkpt><trkpt lat="41.713271" lon="12.6928034"><ele>397.42857142857144</ele><time>2026-04-06T13:48:06.802Z</time></trkpt><trkpt lat="41.7133423" lon="12.6928249"><ele>392.0</ele><time>2026-04-06T13:48:12.975Z</time></trkpt><trkpt lat="41.7133986" lon="12.6928699"><ele>392.0</ele><time>2026-04-06T13:48:18.099Z</time></trkpt><trkpt lat="41.7134502" lon="12.6929208"><ele>392.0</ele><time>2026-04-06T13:48:24.681Z</time></trkpt><trkpt lat="41.7135118" lon="12.6929684"><ele>392.0</ele><time>2026-04-06T13:48:28.742Z</time></trkpt><trkpt lat="41.7135546" lon="12.6930413"><ele>392.0</ele><time>2026-04-06T13:48:31.705Z</time></trkpt><trkpt lat="41.7136099" lon="12.6931057"><ele>392.0</ele><time>2026-04-06T13:48:35.778Z</time></trkpt><trkpt lat="41.7136647" lon="12.6931581"><ele>392.0</ele><time>2026-04-06T13:48:40.706Z</time></trkpt><trkpt lat="41.7137302" lon="12.6931881"><ele>392.0</ele><time>2026-04-06T13:48:46.752Z</time></trkpt><trkpt lat="41.7138046" lon="12.6931856"><ele>393.85714285714283</ele><time>2026-04-06T13:48:53.714Z</time></trkpt><trkpt lat="41.7138572" lon="12.693234"><ele>395.7142857142857</ele><time>2026-04-06T13:49:01.669Z</time></trkpt><trkpt lat="41.7139097" lon="12.6932924"><ele>397.57142857142856</ele><time>2026-04-06T13:49:09.682Z</time></trkpt><trkpt lat="41.7139604" lon="12.6933485"><ele>399.42857142857144</ele><time>2026-04-06T13:49:14.731Z</time></trkpt><trkpt lat="41.7140154" lon="12.6933896"><ele>401.2857142857143</ele><time>2026-04-06T13:49:18.475Z</time></trkpt><trkpt lat="41.7140775" lon="12.693404"><ele>403.1428571428571</ele><time>2026-04-06T13:49:23.738Z</time></trkpt><trkpt lat="41.7141343" lon="12.6934628"><ele>405.0</ele><time>2026-04-06T13:49:30.768Z</time></trkpt><trkpt lat="41.7142086" lon="12.6934699"><ele>405.0</ele><time>2026-04-06T13:49:39.652Z</time></trkpt><trkpt lat="41.7142772" lon="12.6935187"><ele>405.0</ele><time>2026-04-06T13:49:43.707Z</time></trkpt><trkpt lat="41.7143645" lon="12.6935179"><ele>405.0</ele><time>2026-04-06T13:49:46.67Z</time></trkpt><trkpt lat="41.7144383" lon="12.6935497"><ele>405.0</ele><time>2026-04-06T13:49:49.654Z</time></trkpt><trkpt lat="41.714501" lon="12.6935861"><ele>405.0</ele><time>2026-04-06T13:49:53.768Z</time></trkpt><trkpt lat="41.7145661" lon="12.6936427"><ele>405.0</ele><time>2026-04-06T13:49:59.732Z</time></trkpt><trkpt lat="41.7146058" lon="12.6937148"><ele>402.71428571428567</ele><time>2026-04-06T13:50:05.659Z</time></trkpt><trkpt lat="41.7146178" lon="12.693805"><ele>400.42857142857144</ele><time>2026-04-06T13:50:11.392Z</time></trkpt><trkpt lat="41.7146564" lon="12.693875"><ele>398.1428571428571</ele><time>2026-04-06T13:50:17.652Z</time></trkpt><trkpt lat="41.7147015" lon="12.6939372"><ele>395.85714285714283</ele><time>2026-04-06T13:50:25.991Z</time></trkpt><trkpt lat="41.7147571" lon="12.6939968"><ele>393.57142857142856</ele><time>2026-04-06T13:50:33.592Z</time></trkpt><trkpt lat="41.7148237" lon="12.6940148"><ele>391.2857142857143</ele><time>2026-04-06T13:50:41.613Z</time></trkpt><trkpt lat="41.7148872" lon="12.6940494"><ele>389.0</ele><time>2026-04-06T13:50:49.671Z</time></trkpt><trkpt lat="41.714958" lon="12.6940606"><ele>389.0</ele><time>2026-04-06T13:50:54.72Z</time></trkpt><trkpt lat="41.7150202" lon="12.6940884"><ele>389.0</ele><time>2026-04-06T13:50:59.659Z</time></trkpt><trkpt lat="41.7150806" lon="12.6941315"><ele>389.0</ele><time>2026-04-06T13:51:06.156Z</time></trkpt><trkpt lat="41.7151435" lon="12.6941748"><ele>389.0</ele><time>2026-04-06T13:51:11.732Z</time></trkpt><trkpt lat="41.7152139" lon="12.6941788"><ele>389.0</ele><time>2026-04-06T13:51:16.731Z</time></trkpt><trkpt lat="41.7152837" lon="12.6942092"><ele>389.0</ele><time>2026-04-06T13:51:21.72Z</time></trkpt><trkpt lat="41.7153437" lon="12.6942395"><ele>389.0</ele><time>2026-04-06T13:51:25.671Z</time></trkpt><trkpt lat="41.7153896" lon="12.6943031"><ele>387.5714285714286</ele><time>2026-04-06T13:51:30.72Z</time></trkpt><trkpt lat="41.7154472" lon="12.6943655"><ele>386.1428571428571</ele><time>2026-04-06T13:51:36.661Z</time></trkpt><trkpt lat="41.7154862" lon="12.6944336"><ele>384.7142857142857</ele><time>2026-04-06T13:51:42.769Z</time></trkpt><trkpt lat="41.7155301" lon="12.6945152"><ele>383.28571428571433</ele><time>2026-04-06T13:51:48.72Z</time></trkpt><trkpt lat="41.7155713" lon="12.6945971"><ele>381.8571428571429</ele><time>2026-04-06T13:51:54.71Z</time></trkpt><trkpt lat="41.715625" lon="12.6946435"><ele>380.42857142857144</ele><time>2026-04-06T13:52:00.656Z</time></trkpt><trkpt lat="41.7156624" lon="12.694713"><ele>379.0</ele><time>2026-04-06T13:52:05.646Z</time></trkpt><trkpt lat="41.7157136" lon="12.6947703"><ele>379.00000000000006</ele><time>2026-04-06T13:52:11.66Z</time></trkpt><trkpt lat="41.7157815" lon="12.6947468"><ele>379.0</ele><time>2026-04-06T13:52:16.709Z</time></trkpt><trkpt lat="41.7158418" lon="12.6947859"><ele>379.0</ele><time>2026-04-06T13:52:25.709Z</time></trkpt><trkpt lat="41.7159054" lon="12.694784"><ele>379.0</ele><time>2026-04-06T13:52:33.648Z</time></trkpt><trkpt lat="41.7159674" lon="12.6948262"><ele>379.0</ele><time>2026-04-06T13:52:41.648Z</time></trkpt><trkpt lat="41.7160318" lon="12.6948412"><ele>379.00000000000006</ele><time>2026-04-06T13:52:46.674Z</time></trkpt><trkpt lat="41.716083" lon="12.6948913"><ele>379.0</ele><time>2026-04-06T13:52:51.648Z</time></trkpt><trkpt lat="41.7161338" lon="12.6949655"><ele>383.16666666666663</ele><time>2026-04-06T13:52:58.644Z</time></trkpt><trkpt lat="41.7161813" lon="12.6950257"><ele>387.3333333333333</ele><time>2026-04-06T13:53:08.648Z</time></trkpt><trkpt lat="41.7161311" lon="12.6949516"><ele>391.5</ele><time>2026-04-06T13:53:37.713Z</time></trkpt><trkpt lat="41.7160766" lon="12.6948926"><ele>395.66666666666663</ele><time>2026-04-06T13:53:44.646Z</time></trkpt><trkpt lat="41.7161523" lon="12.6948971"><ele>399.8333333333333</ele><time>2026-04-06T13:55:35.708Z</time></trkpt><trkpt lat="41.7162433" lon="12.6948411"><ele>404.0</ele><time>2026-04-06T13:56:01.721Z</time></trkpt><trkpt lat="41.7163111" lon="12.6948099"><ele>404.0</ele><time>2026-04-06T13:56:21.697Z</time></trkpt><trkpt lat="41.7163631" lon="12.6948737"><ele>404.0</ele><time>2026-04-06T13:56:32.673Z</time></trkpt><trkpt lat="41.7162997" lon="12.6948915"><ele>404.0</ele><time>2026-04-06T13:57:49.645Z</time></trkpt><trkpt lat="41.7162346" lon="12.6949088"><ele>404.0</ele><time>2026-04-06T13:58:03.669Z</time></trkpt><trkpt lat="41.7161648" lon="12.6949078"><ele>404.0</ele><time>2026-04-06T13:58:14.647Z</time></trkpt><trkpt lat="41.7161032" lon="12.6948882"><ele>404.0</ele><time>2026-04-06T13:58:31.592Z</time></trkpt><trkpt lat="41.7160042" lon="12.694947"><ele>404.0</ele><time>2026-04-06T14:00:23.554Z</time></trkpt><trkpt lat="41.7159628" lon="12.6948802"><ele>400.42857142857144</ele><time>2026-04-06T14:00:29.742Z</time></trkpt><trkpt lat="41.7159196" lon="12.694815"><ele>396.85714285714283</ele><time>2026-04-06T14:00:33.644Z</time></trkpt><trkpt lat="41.7158821" lon="12.6947431"><ele>393.28571428571433</ele><time>2026-04-06T14:00:37.696Z</time></trkpt><trkpt lat="41.7158246" lon="12.6946984"><ele>389.7142857142857</ele><time>2026-04-06T14:00:41.651Z</time></trkpt><trkpt lat="41.7157599" lon="12.6946862"><ele>386.14285714285717</ele><time>2026-04-06T14:00:47.634Z</time></trkpt><trkpt lat="41.7157146" lon="12.6946143"><ele>382.5714285714286</ele><time>2026-04-06T14:00:53.7Z</time></trkpt><trkpt lat="41.7157473" lon="12.6946883"><ele>379.0</ele><time>2026-04-06T14:01:02.682Z</time></trkpt><trkpt lat="41.7157646" lon="12.6947695"><ele>379.00000000000006</ele><time>2026-04-06T14:01:12.702Z</time></trkpt><trkpt lat="41.71582" lon="12.6948172"><ele>379.0</ele><time>2026-04-06T14:01:19.683Z</time></trkpt><trkpt lat="41.7158718" lon="12.694875"><ele>379.0</ele><time>2026-04-06T14:01:25.533Z</time></trkpt><trkpt lat="41.7159109" lon="12.6949471"><ele>379.0</ele><time>2026-04-06T14:01:31.68Z</time></trkpt><trkpt lat="41.7159444" lon="12.6950186"><ele>379.0</ele><time>2026-04-06T14:01:36.578Z</time></trkpt><trkpt lat="41.7159714" lon="12.6951051"><ele>379.00000000000006</ele><time>2026-04-06T14:01:40.681Z</time></trkpt><trkpt lat="41.7160122" lon="12.6951705"><ele>379.0</ele><time>2026-04-06T14:01:46.719Z</time></trkpt><trkpt lat="41.7160563" lon="12.6952373"><ele>378.28571428571433</ele><time>2026-04-06T14:01:50.671Z</time></trkpt><trkpt lat="41.7161099" lon="12.6953089"><ele>377.57142857142856</ele><time>2026-04-06T14:01:55.72Z</time></trkpt><trkpt lat="41.7161657" lon="12.6953641"><ele>376.8571428571429</ele><time>2026-04-06T14:02:00.66Z</time></trkpt><trkpt lat="41.7162285" lon="12.6953555"><ele>376.14285714285717</ele><time>2026-04-06T14:02:07.684Z</time></trkpt><trkpt lat="41.7162763" lon="12.6954215"><ele>375.42857142857144</ele><time>2026-04-06T14:02:18.663Z</time></trkpt><trkpt lat="41.7163246" lon="12.69548"><ele>374.7142857142857</ele><time>2026-04-06T14:02:25.688Z</time></trkpt><trkpt lat="41.7163696" lon="12.69557"><ele>374.0</ele><time>2026-04-06T14:02:31.649Z</time></trkpt><trkpt lat="41.7164048" lon="12.6956533"><ele>374.0</ele><time>2026-04-06T14:02:37.653Z</time></trkpt><trkpt lat="41.7164487" lon="12.69572"><ele>374.0</ele><time>2026-04-06T14:02:41.764Z</time></trkpt><trkpt lat="41.7165103" lon="12.6957524"><ele>374.0</ele><time>2026-04-06T14:02:48.646Z</time></trkpt><trkpt lat="41.716555" lon="12.6958198"><ele>374.0</ele><time>2026-04-06T14:02:56.648Z</time></trkpt><trkpt lat="41.7165945" lon="12.6958906"><ele>374.0</ele><time>2026-04-06T14:03:01.711Z</time></trkpt><trkpt lat="41.7166472" lon="12.6959579"><ele>374.0</ele><time>2026-04-06T14:03:06.551Z</time></trkpt><trkpt lat="41.7166972" lon="12.6960246"><ele>374.0</ele><time>2026-04-06T14:03:12.652Z</time></trkpt><trkpt lat="41.7167506" lon="12.6960906"><ele>373.85714285714283</ele><time>2026-04-06T14:03:19.696Z</time></trkpt><trkpt lat="41.7168102" lon="12.696157"><ele>373.7142857142857</ele><time>2026-04-06T14:03:24.646Z</time></trkpt><trkpt lat="41.7168512" lon="12.6962227"><ele>373.57142857142856</ele><time>2026-04-06T14:03:28.698Z</time></trkpt><trkpt lat="41.7168961" lon="12.696282"><ele>373.42857142857144</ele><time>2026-04-06T14:03:33.647Z</time></trkpt><trkpt lat="41.7169435" lon="12.6963428"><ele>373.28571428571433</ele><time>2026-04-06T14:03:42.749Z</time></trkpt><trkpt lat="41.716987" lon="12.6964267"><ele>373.14285714285717</ele><time>2026-04-06T14:03:53.384Z</time></trkpt><trkpt lat="41.7170199" lon="12.6965062"><ele>373.0</ele><time>2026-04-06T14:03:58.552Z</time></trkpt><trkpt lat="41.7170477" lon="12.6965881"><ele>373.0</ele><time>2026-04-06T14:04:02.722Z</time></trkpt><trkpt lat="41.7170841" lon="12.696674"><ele>373.0</ele><time>2026-04-06T14:04:07.662Z</time></trkpt><trkpt lat="41.7170999" lon="12.6967575"><ele>373.0</ele><time>2026-04-06T14:04:12.712Z</time></trkpt><trkpt lat="41.7171531" lon="12.6968327"><ele>373.0</ele><time>2026-04-06T14:04:20.113Z</time></trkpt><trkpt lat="41.7172015" lon="12.6968931"><ele>373.0</ele><time>2026-04-06T14:04:27.653Z</time></trkpt><trkpt lat="41.7172427" lon="12.6969735"><ele>373.0</ele><time>2026-04-06T14:04:37.738Z</time></trkpt><trkpt lat="41.7172845" lon="12.6970545"><ele>373.0</ele><time>2026-04-06T14:04:46.016Z</time></trkpt><trkpt lat="41.7173234" lon="12.6971329"><ele>370.0</ele><time>2026-04-06T14:04:52.621Z</time></trkpt><trkpt lat="41.7173747" lon="12.6971956"><ele>367.0</ele><time>2026-04-06T14:05:07.704Z</time></trkpt><trkpt lat="41.7174239" lon="12.6972568"><ele>364.0</ele><time>2026-04-06T14:05:21.114Z</time></trkpt><trkpt lat="41.7174534" lon="12.6973394"><ele>361.0</ele><time>2026-04-06T14:05:30.63Z</time></trkpt><trkpt lat="41.7175005" lon="12.6974119"><ele>358.0</ele><time>2026-04-06T14:05:38.587Z</time></trkpt><trkpt lat="41.7175329" lon="12.6974938"><ele>355.0</ele><time>2026-04-06T14:05:43.707Z</time></trkpt><trkpt lat="41.7175224" lon="12.6975789"><ele>352.0</ele><time>2026-04-06T14:05:49.652Z</time></trkpt><trkpt lat="41.7175594" lon="12.6976513"><ele>352.0</ele><time>2026-04-06T14:06:01.705Z</time></trkpt><trkpt lat="41.7176033" lon="12.6977182"><ele>352.0</ele><time>2026-04-06T14:06:06.678Z</time></trkpt><trkpt lat="41.7176524" lon="12.6977925"><ele>352.0</ele><time>2026-04-06T14:06:13.672Z</time></trkpt><trkpt lat="41.717683" lon="12.6978748"><ele>352.0</ele><time>2026-04-06T14:06:18.721Z</time></trkpt><trkpt lat="41.7177077" lon="12.6979545"><ele>352.0</ele><time>2026-04-06T14:06:22.624Z</time></trkpt><trkpt lat="41.7177349" lon="12.6980383"><ele>352.0</ele><time>2026-04-06T14:06:28.71Z</time></trkpt><trkpt lat="41.7177722" lon="12.6981178"><ele>352.0</ele><time>2026-04-06T14:06:33.651Z</time></trkpt><trkpt lat="41.7178114" lon="12.6981939"><ele>352.14285714285717</ele><time>2026-04-06T14:06:39.627Z</time></trkpt><trkpt lat="41.717869" lon="12.6982445"><ele>352.2857142857143</ele><time>2026-04-06T14:06:46.468Z</time></trkpt><trkpt lat="41.7179206" lon="12.6983029"><ele>352.42857142857144</ele><time>2026-04-06T14:06:51.76Z</time></trkpt><trkpt lat="41.7179601" lon="12.6983805"><ele>352.57142857142856</ele><time>2026-04-06T14:06:56.71Z</time></trkpt><trkpt lat="41.7179996" lon="12.698457"><ele>352.7142857142857</ele><time>2026-04-06T14:07:00.653Z</time></trkpt><trkpt lat="41.7180532" lon="12.6985128"><ele>352.85714285714283</ele><time>2026-04-06T14:07:06.687Z</time></trkpt><trkpt lat="41.7181225" lon="12.698533"><ele>353.0</ele><time>2026-04-06T14:07:16.675Z</time></trkpt><trkpt lat="41.7181825" lon="12.6985708"><ele>350.85714285714283</ele><time>2026-04-06T14:07:24.688Z</time></trkpt><trkpt lat="41.7182475" lon="12.6985908"><ele>348.7142857142857</ele><time>2026-04-06T14:07:31.626Z</time></trkpt><trkpt lat="41.718321" lon="12.6986124"><ele>346.57142857142856</ele><time>2026-04-06T14:07:35.672Z</time></trkpt><trkpt lat="41.7183748" lon="12.6986652"><ele>344.42857142857144</ele><time>2026-04-06T14:07:40.713Z</time></trkpt><trkpt lat="41.718427" lon="12.6987154"><ele>342.2857142857143</ele><time>2026-04-06T14:07:49.713Z</time></trkpt><trkpt lat="41.7184911" lon="12.6987304"><ele>340.14285714285717</ele><time>2026-04-06T14:07:57.726Z</time></trkpt><trkpt lat="41.7185521" lon="12.6987534"><ele>338.0</ele><time>2026-04-06T14:08:04.751Z</time></trkpt><trkpt lat="41.7186129" lon="12.6987964"><ele>338.0</ele><time>2026-04-06T14:08:12.652Z</time></trkpt><trkpt lat="41.7186734" lon="12.6988398"><ele>338.0</ele><time>2026-04-06T14:08:18.691Z</time></trkpt><trkpt lat="41.718736" lon="12.69888"><ele>338.0</ele><time>2026-04-06T14:08:24.727Z</time></trkpt><trkpt lat="41.7188038" lon="12.6989267"><ele>338.0</ele><time>2026-04-06T14:08:29.666Z</time></trkpt><trkpt lat="41.7188615" lon="12.6989747"><ele>338.0</ele><time>2026-04-06T14:08:33.596Z</time></trkpt><trkpt lat="41.7189294" lon="12.699024"><ele>338.0</ele><time>2026-04-06T14:08:37.652Z</time></trkpt><trkpt lat="41.7189923" lon="12.6990762"><ele>338.0</ele><time>2026-04-06T14:08:43.681Z</time></trkpt><trkpt lat="41.7190516" lon="12.6991307"><ele>338.0</ele><time>2026-04-06T14:08:51.728Z</time></trkpt><trkpt lat="41.719112" lon="12.699156"><ele>338.0</ele><time>2026-04-06T14:08:58.192Z</time></trkpt><trkpt lat="41.7192923" lon="12.6992575"><ele>338.0</ele><time>2026-04-06T14:09:17.713Z</time></trkpt><trkpt lat="41.7193527" lon="12.6992966"><ele>338.0</ele><time>2026-04-06T14:09:24.658Z</time></trkpt><trkpt lat="41.7194138" lon="12.6993445"><ele>338.0</ele><time>2026-04-06T14:09:29.703Z</time></trkpt><trkpt lat="41.7194722" lon="12.6993768"><ele>339.2857142857143</ele><time>2026-04-06T14:09:34.753Z</time></trkpt><trkpt lat="41.7195455" lon="12.6994094"><ele>340.57142857142856</ele><time>2026-04-06T14:09:42.978Z</time></trkpt><trkpt lat="41.7196149" lon="12.6994551"><ele>341.8571428571429</ele><time>2026-04-06T14:09:46.288Z</time></trkpt><trkpt lat="41.7196618" lon="12.6995256"><ele>343.1428571428571</ele><time>2026-04-06T14:09:50.669Z</time></trkpt><trkpt lat="41.7197064" lon="12.6995886"><ele>344.4285714285714</ele><time>2026-04-06T14:09:59.668Z</time></trkpt><trkpt lat="41.719766" lon="12.6996378"><ele>345.7142857142857</ele><time>2026-04-06T14:10:04.719Z</time></trkpt><trkpt lat="41.7198318" lon="12.6996746"><ele>347.0</ele><time>2026-04-06T14:10:09.658Z</time></trkpt><trkpt lat="41.719895" lon="12.6997085"><ele>345.5714285714286</ele><time>2026-04-06T14:10:13.735Z</time></trkpt><trkpt lat="41.7199587" lon="12.6997433"><ele>344.1428571428571</ele><time>2026-04-06T14:10:17.671Z</time></trkpt><trkpt lat="41.7200174" lon="12.6997807"><ele>342.7142857142857</ele><time>2026-04-06T14:10:23.708Z</time></trkpt><trkpt lat="41.7200766" lon="12.6998249"><ele>341.28571428571433</ele><time>2026-04-06T14:10:30.654Z</time></trkpt><trkpt lat="41.720136" lon="12.6998647"><ele>339.8571428571429</ele><time>2026-04-06T14:10:37.757Z</time></trkpt><trkpt lat="41.7202" lon="12.6999039"><ele>338.42857142857144</ele><time>2026-04-06T14:10:43.414Z</time></trkpt><trkpt lat="41.7202623" lon="12.6999342"><ele>337.0</ele><time>2026-04-06T14:10:47.746Z</time></trkpt><trkpt lat="41.7203238" lon="12.6999627"><ele>337.00000000000006</ele><time>2026-04-06T14:10:53.621Z</time></trkpt><trkpt lat="41.7203835" lon="12.6999908"><ele>337.0</ele><time>2026-04-06T14:10:58.722Z</time></trkpt><trkpt lat="41.7204455" lon="12.7000522"><ele>337.0</ele><time>2026-04-06T14:11:05.667Z</time></trkpt><trkpt lat="41.7205041" lon="12.7000983"><ele>337.0</ele><time>2026-04-06T14:11:11.764Z</time></trkpt><trkpt lat="41.7205773" lon="12.7001311"><ele>337.0</ele><time>2026-04-06T14:11:18.765Z</time></trkpt><trkpt lat="41.7206425" lon="12.7001553"><ele>337.00000000000006</ele><time>2026-04-06T14:11:22.647Z</time></trkpt><trkpt lat="41.7207077" lon="12.7001686"><ele>337.0</ele><time>2026-04-06T14:11:29.675Z</time></trkpt><trkpt lat="41.7207655" lon="12.7002183"><ele>336.5714285714286</ele><time>2026-04-06T14:11:36.715Z</time></trkpt><trkpt lat="41.7208144" lon="12.700281"><ele>336.14285714285717</ele><time>2026-04-06T14:11:43.724Z</time></trkpt><trkpt lat="41.7208714" lon="12.7003417"><ele>335.7142857142857</ele><time>2026-04-06T14:11:50.676Z</time></trkpt><trkpt lat="41.7209092" lon="12.7004118"><ele>335.28571428571433</ele><time>2026-04-06T14:11:56.676Z</time></trkpt><trkpt lat="41.7209488" lon="12.7004779"><ele>334.8571428571429</ele><time>2026-04-06T14:12:03.701Z</time></trkpt><trkpt lat="41.721004" lon="12.7005344"><ele>334.42857142857144</ele><time>2026-04-06T14:12:09.737Z</time></trkpt><trkpt lat="41.7210368" lon="12.7006089"><ele>334.0</ele><time>2026-04-06T14:12:14.711Z</time></trkpt><trkpt lat="41.7210779" lon="12.7006759"><ele>334.0</ele><time>2026-04-06T14:12:22.689Z</time></trkpt><trkpt lat="41.7211307" lon="12.7007247"><ele>334.0</ele><time>2026-04-06T14:12:28.726Z</time></trkpt><trkpt lat="41.7211743" lon="12.7007869"><ele>334.0</ele><time>2026-04-06T14:12:34.653Z</time></trkpt><trkpt lat="41.721214" lon="12.7008644"><ele>334.0</ele><time>2026-04-06T14:12:40.689Z</time></trkpt><trkpt lat="41.7212533" lon="12.7009363"><ele>334.0</ele><time>2026-04-06T14:12:45.722Z</time></trkpt><trkpt lat="41.7212893" lon="12.7010126"><ele>334.0</ele><time>2026-04-06T14:12:52.654Z</time></trkpt><trkpt lat="41.7213467" lon="12.7010627"><ele>334.0</ele><time>2026-04-06T14:13:04.728Z</time></trkpt><trkpt lat="41.7213951" lon="12.701124"><ele>333.85714285714283</ele><time>2026-04-06T14:13:09.979Z</time></trkpt><trkpt lat="41.7214646" lon="12.7011454"><ele>333.7142857142857</ele><time>2026-04-06T14:13:15.704Z</time></trkpt><trkpt lat="41.7215331" lon="12.701129"><ele>333.57142857142856</ele><time>2026-04-06T14:14:00.706Z</time></trkpt><trkpt lat="41.7215964" lon="12.7011374"><ele>333.42857142857144</ele><time>2026-04-06T14:14:04.657Z</time></trkpt><trkpt lat="41.7216588" lon="12.7011486"><ele>333.2857142857143</ele><time>2026-04-06T14:14:09.698Z</time></trkpt><trkpt lat="41.7217248" lon="12.7011534"><ele>333.14285714285717</ele><time>2026-04-06T14:14:16.335Z</time></trkpt><trkpt lat="41.7217901" lon="12.701155"><ele>333.0</ele><time>2026-04-06T14:14:22.658Z</time></trkpt><trkpt lat="41.7218615" lon="12.7011686"><ele>333.14285714285717</ele><time>2026-04-06T14:14:28.695Z</time></trkpt><trkpt lat="41.7219327" lon="12.7011538"><ele>333.2857142857143</ele><time>2026-04-06T14:14:34.709Z</time></trkpt><trkpt lat="41.7220074" lon="12.7011404"><ele>333.42857142857144</ele><time>2026-04-06T14:14:42.65Z</time></trkpt><trkpt lat="41.7220703" lon="12.7011525"><ele>333.57142857142856</ele><time>2026-04-06T14:14:48.729Z</time></trkpt><trkpt lat="41.7221371" lon="12.7011614"><ele>333.7142857142857</ele><time>2026-04-06T14:14:54.708Z</time></trkpt><trkpt lat="41.7222072" lon="12.7011794"><ele>333.85714285714283</ele><time>2026-04-06T14:15:00.745Z</time></trkpt><trkpt lat="41.7222711" lon="12.70116"><ele>334.0</ele><time>2026-04-06T14:15:07.66Z</time></trkpt><trkpt lat="41.7223351" lon="12.7011534"><ele>334.0</ele><time>2026-04-06T14:15:16.66Z</time></trkpt><trkpt lat="41.7224068" lon="12.70117"><ele>334.0</ele><time>2026-04-06T14:15:24.785Z</time></trkpt><trkpt lat="41.7225091" lon="12.7011821"><ele>334.0</ele><time>2026-04-06T14:15:31.454Z</time></trkpt><trkpt lat="41.7225754" lon="12.7011946"><ele>334.0</ele><time>2026-04-06T14:15:34.743Z</time></trkpt><trkpt lat="41.7226352" lon="12.7012394"><ele>334.0</ele><time>2026-04-06T14:15:39.651Z</time></trkpt><trkpt lat="41.7226981" lon="12.7012732"><ele>334.0</ele><time>2026-04-06T14:15:44.74Z</time></trkpt><trkpt lat="41.7227446" lon="12.7013488"><ele>334.2857142857143</ele><time>2026-04-06T14:15:50.741Z</time></trkpt><trkpt lat="41.7227824" lon="12.701423"><ele>334.57142857142856</ele><time>2026-04-06T14:15:57.711Z</time></trkpt><trkpt lat="41.7228124" lon="12.7015155"><ele>334.8571428571429</ele><time>2026-04-06T14:16:05.65Z</time></trkpt><trkpt lat="41.7228345" lon="12.7015977"><ele>335.1428571428571</ele><time>2026-04-06T14:16:10.771Z</time></trkpt><trkpt lat="41.7228401" lon="12.7016885"><ele>335.42857142857144</ele><time>2026-04-06T14:16:16.506Z</time></trkpt><trkpt lat="41.7228524" lon="12.7017796"><ele>335.7142857142857</ele><time>2026-04-06T14:16:21.652Z</time></trkpt><trkpt lat="41.7228508" lon="12.7018678"><ele>336.0</ele><time>2026-04-06T14:16:26.688Z</time></trkpt><trkpt lat="41.7228591" lon="12.701956"><ele>336.14285714285717</ele><time>2026-04-06T14:16:32.691Z</time></trkpt><trkpt lat="41.7228519" lon="12.702048"><ele>336.2857142857143</ele><time>2026-04-06T14:16:41.725Z</time></trkpt><trkpt lat="41.7228546" lon="12.7021575"><ele>336.42857142857144</ele><time>2026-04-06T14:16:48.75Z</time></trkpt><trkpt lat="41.7228558" lon="12.702247"><ele>336.57142857142856</ele><time>2026-04-06T14:16:54.592Z</time></trkpt><trkpt lat="41.7228473" lon="12.7023452"><ele>336.7142857142857</ele><time>2026-04-06T14:17:01.702Z</time></trkpt><trkpt lat="41.7228188" lon="12.7024298"><ele>336.8571428571429</ele><time>2026-04-06T14:17:07.646Z</time></trkpt><trkpt lat="41.7228191" lon="12.7025324"><ele>337.0</ele><time>2026-04-06T14:17:14.654Z</time></trkpt><trkpt lat="41.7228409" lon="12.7026199"><ele>337.00000000000006</ele><time>2026-04-06T14:17:19.704Z</time></trkpt><trkpt lat="41.7227896" lon="12.7026722"><ele>337.0</ele><time>2026-04-06T14:17:31.672Z</time></trkpt><trkpt lat="41.7227216" lon="12.7026896"><ele>337.0</ele><time>2026-04-06T14:17:39.709Z</time></trkpt><trkpt lat="41.7226493" lon="12.7026905"><ele>337.0</ele><time>2026-04-06T14:17:45.645Z</time></trkpt><trkpt lat="41.7225785" lon="12.7026842"><ele>337.0</ele><time>2026-04-06T14:17:51.65Z</time></trkpt><trkpt lat="41.7225165" lon="12.7027092"><ele>337.00000000000006</ele><time>2026-04-06T14:17:57.61Z</time></trkpt><trkpt lat="41.7224506" lon="12.7027075"><ele>337.0</ele><time>2026-04-06T14:18:02.733Z</time></trkpt><trkpt lat="41.7223825" lon="12.7026927"><ele>336.5714285714286</ele><time>2026-04-06T14:18:08.643Z</time></trkpt><trkpt lat="41.7223082" lon="12.7026921"><ele>336.14285714285717</ele><time>2026-04-06T14:18:17.694Z</time></trkpt><trkpt lat="41.7222337" lon="12.7026904"><ele>335.7142857142857</ele><time>2026-04-06T14:18:22.712Z</time></trkpt><trkpt lat="41.7221725" lon="12.7027126"><ele>335.28571428571433</ele><time>2026-04-06T14:18:26.663Z</time></trkpt><trkpt lat="41.7221086" lon="12.7027262"><ele>334.8571428571429</ele><time>2026-04-06T14:18:34.613Z</time></trkpt><trkpt lat="41.7220434" lon="12.7027518"><ele>334.42857142857144</ele><time>2026-04-06T14:18:39.726Z</time></trkpt><trkpt lat="41.7219781" lon="12.702761"><ele>334.0</ele><time>2026-04-06T14:18:47.649Z</time></trkpt><trkpt lat="41.7219142" lon="12.7027568"><ele>333.57142857142856</ele><time>2026-04-06T14:18:51.69Z</time></trkpt><trkpt lat="41.7218512" lon="12.7027463"><ele>333.14285714285717</ele><time>2026-04-06T14:18:56.768Z</time></trkpt><trkpt lat="41.721781" lon="12.7027599"><ele>332.7142857142857</ele><time>2026-04-06T14:19:01.617Z</time></trkpt><trkpt lat="41.7217193" lon="12.7027851"><ele>332.2857142857143</ele><time>2026-04-06T14:19:07.716Z</time></trkpt><trkpt lat="41.721651" lon="12.7028136"><ele>331.85714285714283</ele><time>2026-04-06T14:19:12.618Z</time></trkpt><trkpt lat="41.7215831" lon="12.7028231"><ele>331.42857142857144</ele><time>2026-04-06T14:19:19.681Z</time></trkpt><trkpt lat="41.7215195" lon="12.7028352"><ele>331.0</ele><time>2026-04-06T14:19:27.693Z</time></trkpt><trkpt lat="41.7214541" lon="12.702853"><ele>330.57142857142856</ele><time>2026-04-06T14:19:35.665Z</time></trkpt><trkpt lat="41.7214139" lon="12.7029344"><ele>330.1428571428571</ele><time>2026-04-06T14:19:41.743Z</time></trkpt><trkpt lat="41.721398" lon="12.7030293"><ele>329.71428571428567</ele><time>2026-04-06T14:19:47.67Z</time></trkpt><trkpt lat="41.7213723" lon="12.7031186"><ele>329.2857142857143</ele><time>2026-04-06T14:19:52.72Z</time></trkpt><trkpt lat="41.7213439" lon="12.7031997"><ele>328.85714285714283</ele><time>2026-04-06T14:19:57.659Z</time></trkpt><trkpt lat="41.7213149" lon="12.7032866"><ele>328.4285714285714</ele><time>2026-04-06T14:20:04.617Z</time></trkpt><trkpt lat="41.7212814" lon="12.7033681"><ele>328.0</ele><time>2026-04-06T14:20:10.674Z</time></trkpt><trkpt lat="41.721254" lon="12.7034743"><ele>327.99999999999994</ele><time>2026-04-06T14:20:16.536Z</time></trkpt><trkpt lat="41.7212587" lon="12.7035627"><ele>328.0</ele><time>2026-04-06T14:20:23.673Z</time></trkpt><trkpt lat="41.7212388" lon="12.7036452"><ele>328.0</ele><time>2026-04-06T14:20:33.319Z</time></trkpt><trkpt lat="41.721211" lon="12.7037234"><ele>328.0</ele><time>2026-04-06T14:20:38.711Z</time></trkpt><trkpt lat="41.7211924" lon="12.7038143"><ele>328.0</ele><time>2026-04-06T14:20:42.686Z</time></trkpt><trkpt lat="41.721165" lon="12.7038907"><ele>327.99999999999994</ele><time>2026-04-06T14:20:48.7Z</time></trkpt><trkpt lat="41.7211702" lon="12.7039833"><ele>328.0</ele><time>2026-04-06T14:20:53.651Z</time></trkpt><trkpt lat="41.721194" lon="12.7040733"><ele>327.57142857142856</ele><time>2026-04-06T14:21:00.626Z</time></trkpt><trkpt lat="41.7212294" lon="12.7041541"><ele>327.1428571428571</ele><time>2026-04-06T14:21:07.777Z</time></trkpt><trkpt lat="41.7212452" lon="12.7042378"><ele>326.71428571428567</ele><time>2026-04-06T14:21:17.679Z</time></trkpt><trkpt lat="41.7212787" lon="12.7043162"><ele>326.2857142857143</ele><time>2026-04-06T14:21:24.704Z</time></trkpt><trkpt lat="41.7212998" lon="12.7043994"><ele>325.8571428571429</ele><time>2026-04-06T14:21:30.741Z</time></trkpt><trkpt lat="41.7213253" lon="12.7044884"><ele>325.4285714285714</ele><time>2026-04-06T14:21:35.722Z</time></trkpt><trkpt lat="41.7213468" lon="12.7045708"><ele>325.0</ele><time>2026-04-06T14:21:41.635Z</time></trkpt><trkpt lat="41.7213725" lon="12.7046626"><ele>324.57142857142856</ele><time>2026-04-06T14:21:48.742Z</time></trkpt><trkpt lat="41.7214017" lon="12.7047558"><ele>324.14285714285717</ele><time>2026-04-06T14:21:53.682Z</time></trkpt><trkpt lat="41.7214294" lon="12.704833"><ele>323.7142857142857</ele><time>2026-04-06T14:21:57.743Z</time></trkpt><trkpt lat="41.7214322" lon="12.7049175"><ele>323.2857142857143</ele><time>2026-04-06T14:22:02.682Z</time></trkpt><trkpt lat="41.7214227" lon="12.7050085"><ele>322.8571428571429</ele><time>2026-04-06T14:22:09.707Z</time></trkpt><trkpt lat="41.7214101" lon="12.7051019"><ele>322.42857142857144</ele><time>2026-04-06T14:22:15.687Z</time></trkpt><trkpt lat="41.7214354" lon="12.7051889"><ele>322.0</ele><time>2026-04-06T14:22:23.771Z</time></trkpt><trkpt lat="41.7214607" lon="12.7052877"><ele>321.85714285714283</ele><time>2026-04-06T14:22:30.687Z</time></trkpt><trkpt lat="41.7214666" lon="12.7053796"><ele>321.7142857142857</ele><time>2026-04-06T14:22:35.721Z</time></trkpt><trkpt lat="41.7214996" lon="12.7054673"><ele>321.57142857142856</ele><time>2026-04-06T14:22:42.746Z</time></trkpt><trkpt lat="41.7215038" lon="12.7055565"><ele>321.42857142857144</ele><time>2026-04-06T14:22:48.668Z</time></trkpt><trkpt lat="41.7215202" lon="12.7056486"><ele>321.2857142857143</ele><time>2026-04-06T14:22:54.71Z</time></trkpt><trkpt lat="41.7215365" lon="12.7057343"><ele>321.1428571428571</ele><time>2026-04-06T14:22:59.572Z</time></trkpt><trkpt lat="41.7215557" lon="12.7058186"><ele>321.0</ele><time>2026-04-06T14:23:08.654Z</time></trkpt><trkpt lat="41.7215963" lon="12.7059032"><ele>320.99999999999994</ele><time>2026-04-06T14:23:15.675Z</time></trkpt><trkpt lat="41.7216204" lon="12.7059841"><ele>321.0</ele><time>2026-04-06T14:23:19.784Z</time></trkpt><trkpt lat="41.7216491" lon="12.7060648"><ele>321.0</ele><time>2026-04-06T14:23:27.1Z</time></trkpt><trkpt lat="41.7216963" lon="12.7061488"><ele>321.0</ele><time>2026-04-06T14:23:32.736Z</time></trkpt><trkpt lat="41.7217371" lon="12.7062286"><ele>321.0</ele><time>2026-04-06T14:23:39.701Z</time></trkpt><trkpt lat="41.721783" lon="12.7062938"><ele>320.99999999999994</ele><time>2026-04-06T14:23:46.672Z</time></trkpt><trkpt lat="41.7217988" lon="12.7063785"><ele>321.0</ele><time>2026-04-06T14:23:53.712Z</time></trkpt><trkpt lat="41.7218228" lon="12.7064657"><ele>320.99999999999994</ele><time>2026-04-06T14:23:59.698Z</time></trkpt><trkpt lat="41.7218389" lon="12.7065579"><ele>321.0</ele><time>2026-04-06T14:24:05.715Z</time></trkpt><trkpt lat="41.7218658" lon="12.7066544"><ele>321.0</ele><time>2026-04-06T14:24:12.752Z</time></trkpt><trkpt lat="41.7218834" lon="12.7067423"><ele>321.0</ele><time>2026-04-06T14:24:18.639Z</time></trkpt><trkpt lat="41.7218687" lon="12.7068335"><ele>321.0</ele><time>2026-04-06T14:24:23.728Z</time></trkpt><trkpt lat="41.7218748" lon="12.7069228"><ele>320.99999999999994</ele><time>2026-04-06T14:24:29.724Z</time></trkpt><trkpt lat="41.7218637" lon="12.7070084"><ele>321.0</ele><time>2026-04-06T14:24:35.692Z</time></trkpt><trkpt lat="41.7218707" lon="12.7071011"><ele>321.2857142857143</ele><time>2026-04-06T14:24:42.717Z</time></trkpt><trkpt lat="41.7218853" lon="12.7071878"><ele>321.57142857142856</ele><time>2026-04-06T14:24:51.643Z</time></trkpt><trkpt lat="41.7218745" lon="12.70729"><ele>321.8571428571429</ele><time>2026-04-06T14:24:56.686Z</time></trkpt><trkpt lat="41.7218558" lon="12.7073818"><ele>322.1428571428571</ele><time>2026-04-06T14:25:02.694Z</time></trkpt><trkpt lat="41.7218498" lon="12.7074723"><ele>322.42857142857144</ele><time>2026-04-06T14:25:07.885Z</time></trkpt><trkpt lat="41.7218442" lon="12.707562"><ele>322.7142857142857</ele><time>2026-04-06T14:25:12.61Z</time></trkpt><trkpt lat="41.7218304" lon="12.7076553"><ele>323.0</ele><time>2026-04-06T14:25:21.683Z</time></trkpt><trkpt lat="41.7218262" lon="12.7077505"><ele>323.14285714285717</ele><time>2026-04-06T14:25:28.707Z</time></trkpt><trkpt lat="41.7217995" lon="12.7078375"><ele>323.2857142857143</ele><time>2026-04-06T14:25:34.744Z</time></trkpt><trkpt lat="41.7217723" lon="12.7079141"><ele>323.42857142857144</ele><time>2026-04-06T14:25:39.684Z</time></trkpt><trkpt lat="41.7217697" lon="12.7080138"><ele>323.57142857142856</ele><time>2026-04-06T14:25:45.72Z</time></trkpt><trkpt lat="41.721766" lon="12.7081041"><ele>323.7142857142857</ele><time>2026-04-06T14:25:52.65Z</time></trkpt><trkpt lat="41.7217385" lon="12.7081896"><ele>323.8571428571429</ele><time>2026-04-06T14:25:58.674Z</time></trkpt><trkpt lat="41.7217374" lon="12.7082769"><ele>324.0</ele><time>2026-04-06T14:26:04.684Z</time></trkpt><trkpt lat="41.7217329" lon="12.7083681"><ele>324.0</ele><time>2026-04-06T14:26:13.635Z</time></trkpt><trkpt lat="41.7216996" lon="12.7084431"><ele>324.0</ele><time>2026-04-06T14:26:18.653Z</time></trkpt><trkpt lat="41.7216624" lon="12.7085297"><ele>324.0</ele><time>2026-04-06T14:26:26.666Z</time></trkpt><trkpt lat="41.7216191" lon="12.7086116"><ele>324.0</ele><time>2026-04-06T14:26:32.676Z</time></trkpt><trkpt lat="41.7216038" lon="12.7087036"><ele>324.0</ele><time>2026-04-06T14:26:39.729Z</time></trkpt><trkpt lat="41.7215745" lon="12.7087895"><ele>324.0</ele><time>2026-04-06T14:26:48.73Z</time></trkpt><trkpt lat="41.7216019" lon="12.7088757"><ele>324.0</ele><time>2026-04-06T14:26:56.332Z</time></trkpt><trkpt lat="41.7216248" lon="12.7089609"><ele>324.57142857142856</ele><time>2026-04-06T14:27:03.659Z</time></trkpt><trkpt lat="41.72168" lon="12.709014"><ele>325.1428571428571</ele><time>2026-04-06T14:27:08.705Z</time></trkpt><trkpt lat="41.7217206" lon="12.7090966"><ele>325.71428571428567</ele><time>2026-04-06T14:27:15.702Z</time></trkpt><trkpt lat="41.7217212" lon="12.7091812"><ele>326.2857142857143</ele><time>2026-04-06T14:27:26.71Z</time></trkpt><trkpt lat="41.7216756" lon="12.7092405"><ele>326.85714285714283</ele><time>2026-04-06T14:27:33.735Z</time></trkpt><trkpt lat="41.7216204" lon="12.7092888"><ele>327.4285714285714</ele><time>2026-04-06T14:27:42.655Z</time></trkpt><trkpt lat="41.7215673" lon="12.7093442"><ele>328.0</ele><time>2026-04-06T14:27:50.691Z</time></trkpt><trkpt lat="41.7215058" lon="12.7093876"><ele>329.57142857142856</ele><time>2026-04-06T14:27:56.677Z</time></trkpt><trkpt lat="41.7214658" lon="12.7094594"><ele>331.1428571428571</ele><time>2026-04-06T14:28:03.702Z</time></trkpt><trkpt lat="41.7214121" lon="12.7095154"><ele>332.71428571428567</ele><time>2026-04-06T14:28:08.8Z</time></trkpt><trkpt lat="41.7213543" lon="12.7095547"><ele>334.2857142857143</ele><time>2026-04-06T14:28:14.678Z</time></trkpt><trkpt lat="41.7212941" lon="12.7095846"><ele>335.8571428571429</ele><time>2026-04-06T14:28:20.714Z</time></trkpt><trkpt lat="41.7212274" lon="12.7095901"><ele>337.4285714285714</ele><time>2026-04-06T14:28:25.773Z</time></trkpt><trkpt lat="41.7211613" lon="12.7095736"><ele>339.0</ele><time>2026-04-06T14:28:30.704Z</time></trkpt><trkpt lat="41.7210864" lon="12.7095588"><ele>338.85714285714283</ele><time>2026-04-06T14:28:36.694Z</time></trkpt><trkpt lat="41.7210246" lon="12.7095423"><ele>338.7142857142857</ele><time>2026-04-06T14:28:42.611Z</time></trkpt><trkpt lat="41.7209568" lon="12.7095362"><ele>338.57142857142856</ele><time>2026-04-06T14:28:50.613Z</time></trkpt><trkpt lat="41.7208894" lon="12.7095259"><ele>338.42857142857144</ele><time>2026-04-06T14:28:57.623Z</time></trkpt><trkpt lat="41.7208152" lon="12.7095309"><ele>338.2857142857143</ele><time>2026-04-06T14:29:03.781Z</time></trkpt><trkpt lat="41.7207513" lon="12.7095441"><ele>338.14285714285717</ele><time>2026-04-06T14:29:09.608Z</time></trkpt><trkpt lat="41.7206831" lon="12.7095528"><ele>338.0</ele><time>2026-04-06T14:29:15.654Z</time></trkpt><trkpt lat="41.7206187" lon="12.709536"><ele>338.0</ele><time>2026-04-06T14:29:19.659Z</time></trkpt><trkpt lat="41.7205556" lon="12.7095456"><ele>338.0</ele><time>2026-04-06T14:29:24.708Z</time></trkpt><trkpt lat="41.720486" lon="12.7095684"><ele>338.0</ele><time>2026-04-06T14:29:30.672Z</time></trkpt><trkpt lat="41.7204185" lon="12.7095577"><ele>338.0</ele><time>2026-04-06T14:29:40.342Z</time></trkpt><trkpt lat="41.7203524" lon="12.7095463"><ele>338.0</ele><time>2026-04-06T14:29:45.673Z</time></trkpt><trkpt lat="41.7202899" lon="12.7095275"><ele>338.0</ele><time>2026-04-06T14:29:50.722Z</time></trkpt><trkpt lat="41.7202266" lon="12.709519"><ele>338.0</ele><time>2026-04-06T14:29:55.661Z</time></trkpt><trkpt lat="41.7201549" lon="12.7095277"><ele>339.0</ele><time>2026-04-06T14:30:01.698Z</time></trkpt><trkpt lat="41.7200886" lon="12.7095462"><ele>340.0</ele><time>2026-04-06T14:30:08.656Z</time></trkpt><trkpt lat="41.720016" lon="12.7095758"><ele>341.0</ele><time>2026-04-06T14:30:13.645Z</time></trkpt><trkpt lat="41.7199452" lon="12.7095937"><ele>342.0</ele><time>2026-04-06T14:30:18.712Z</time></trkpt><trkpt lat="41.7198821" lon="12.7095856"><ele>343.0</ele><time>2026-04-06T14:30:24.653Z</time></trkpt><trkpt lat="41.7198024" lon="12.7095763"><ele>344.0</ele><time>2026-04-06T14:30:30.676Z</time></trkpt><trkpt lat="41.7197322" lon="12.7095692"><ele>345.0</ele><time>2026-04-06T14:30:34.737Z</time></trkpt><trkpt lat="41.7196665" lon="12.7095798"><ele>345.0</ele><time>2026-04-06T14:30:39.676Z</time></trkpt><trkpt lat="41.7195996" lon="12.7096035"><ele>345.0</ele><time>2026-04-06T14:30:48.664Z</time></trkpt><trkpt lat="41.7195289" lon="12.7096088"><ele>345.0</ele><time>2026-04-06T14:30:55.702Z</time></trkpt><trkpt lat="41.7194568" lon="12.7096347"><ele>345.0</ele><time>2026-04-06T14:31:02.727Z</time></trkpt><trkpt lat="41.7193897" lon="12.709647"><ele>345.0</ele><time>2026-04-06T14:31:07.768Z</time></trkpt><trkpt lat="41.7193272" lon="12.7096856"><ele>345.0</ele><time>2026-04-06T14:31:13.411Z</time></trkpt><trkpt lat="41.7192583" lon="12.709689"><ele>345.0</ele><time>2026-04-06T14:31:17.567Z</time></trkpt><trkpt lat="41.7191919" lon="12.7096862"><ele>345.0</ele><time>2026-04-06T14:31:22.703Z</time></trkpt><trkpt lat="41.7191251" lon="12.7097091"><ele>345.0</ele><time>2026-04-06T14:31:29.434Z</time></trkpt><trkpt lat="41.7190603" lon="12.7097142"><ele>345.0</ele><time>2026-04-06T14:31:34.651Z</time></trkpt><trkpt lat="41.7189946" lon="12.7097202"><ele>345.0</ele><time>2026-04-06T14:31:39.71Z</time></trkpt><trkpt lat="41.7189294" lon="12.7097138"><ele>345.0</ele><time>2026-04-06T14:31:44.766Z</time></trkpt><trkpt lat="41.7188629" lon="12.709715"><ele>345.0</ele><time>2026-04-06T14:31:51.681Z</time></trkpt><trkpt lat="41.7188024" lon="12.7097599"><ele>345.0</ele><time>2026-04-06T14:31:57.717Z</time></trkpt><trkpt lat="41.7187429" lon="12.7097972"><ele>345.0</ele><time>2026-04-06T14:32:03.568Z</time></trkpt><trkpt lat="41.718677" lon="12.7098362"><ele>345.0</ele><time>2026-04-06T14:32:09.681Z</time></trkpt><trkpt lat="41.7185602" lon="12.7098921"><ele>345.0</ele><time>2026-04-06T14:33:24.759Z</time></trkpt><trkpt lat="41.7184927" lon="12.7099094"><ele>345.0</ele><time>2026-04-06T14:33:28.671Z</time></trkpt><trkpt lat="41.7184274" lon="12.7099422"><ele>345.0</ele><time>2026-04-06T14:33:33.649Z</time></trkpt><trkpt lat="41.7183643" lon="12.709967"><ele>345.0</ele><time>2026-04-06T14:33:39.685Z</time></trkpt><trkpt lat="41.7182972" lon="12.7099945"><ele>344.0</ele><time>2026-04-06T14:33:44.233Z</time></trkpt><trkpt lat="41.7182269" lon="12.7100445"><ele>343.0</ele><time>2026-04-06T14:33:48.542Z</time></trkpt><trkpt lat="41.7181584" lon="12.7100607"><ele>342.0</ele><time>2026-04-06T14:33:54.724Z</time></trkpt><trkpt lat="41.7181068" lon="12.7101122"><ele>341.0</ele><time>2026-04-06T14:33:59.617Z</time></trkpt><trkpt lat="41.7180521" lon="12.7101633"><ele>340.0</ele><time>2026-04-06T14:34:05.747Z</time></trkpt><trkpt lat="41.7179945" lon="12.7102234"><ele>339.0</ele><time>2026-04-06T14:34:11.737Z</time></trkpt><trkpt lat="41.717931" lon="12.7102808"><ele>338.0</ele><time>2026-04-06T14:34:18.01Z</time></trkpt><trkpt lat="41.7180006" lon="12.7103442"><ele>342.5</ele><time>2026-04-06T14:34:39.727Z</time></trkpt><trkpt lat="41.718096" lon="12.7103562"><ele>347.0</ele><time>2026-04-06T14:35:05.656Z</time></trkpt><trkpt lat="41.7181629" lon="12.7103072"><ele>351.5</ele><time>2026-04-06T14:35:13.648Z</time></trkpt><trkpt lat="41.7182326" lon="12.7102952"><ele>356.0</ele><time>2026-04-06T14:35:17.645Z</time></trkpt><trkpt lat="41.7182943" lon="12.7102738"><ele>360.5</ele><time>2026-04-06T14:35:24.646Z</time></trkpt><trkpt lat="41.7183598" lon="12.710275"><ele>365.0</ele><time>2026-04-06T14:35:32.736Z</time></trkpt><trkpt lat="41.7184609" lon="12.7102759"><ele>365.00000000000006</ele><time>2026-04-06T14:35:48.634Z</time></trkpt><trkpt lat="41.718528" lon="12.7102706"><ele>365.0</ele><time>2026-04-06T14:35:59.645Z</time></trkpt><trkpt lat="41.7185979" lon="12.7102808"><ele>365.0</ele><time>2026-04-06T14:36:04.688Z</time></trkpt><trkpt lat="41.7186496" lon="12.7103409"><ele>365.0</ele><time>2026-04-06T14:36:17.65Z</time></trkpt><trkpt lat="41.7187067" lon="12.710379"><ele>365.0</ele><time>2026-04-06T14:36:25.731Z</time></trkpt><trkpt lat="41.71877" lon="12.7103951"><ele>365.00000000000006</ele><time>2026-04-06T14:36:33.668Z</time></trkpt><trkpt lat="41.7188361" lon="12.7104025"><ele>365.0</ele><time>2026-04-06T14:36:58.695Z</time></trkpt><trkpt lat="41.7189441" lon="12.7104273"><ele>370.33333333333337</ele><time>2026-04-06T14:37:29.592Z</time></trkpt><trkpt lat="41.7190144" lon="12.7102705"><ele>375.6666666666667</ele><time>2026-04-06T14:37:41.725Z</time></trkpt><trkpt lat="41.7190767" lon="12.7103059"><ele>381.0</ele><time>2026-04-06T14:42:43.691Z</time></trkpt><trkpt lat="41.7191416" lon="12.7103434"><ele>386.33333333333337</ele><time>2026-04-06T15:02:55.694Z</time></trkpt><trkpt lat="41.7191714" lon="12.7104297"><ele>391.6666666666667</ele><time>2026-04-06T15:03:00.743Z</time></trkpt><trkpt lat="41.7192232" lon="12.7104938"><ele>397.0</ele><time>2026-04-06T15:03:08.652Z</time></trkpt><trkpt lat="41.7192839" lon="12.7105259"><ele>397.0</ele><time>2026-04-06T15:03:16.658Z</time></trkpt><trkpt lat="41.7193445" lon="12.7105534"><ele>397.0</ele><time>2026-04-06T15:03:29.758Z</time></trkpt><trkpt lat="41.7194311" lon="12.710541"><ele>397.0</ele><time>2026-04-06T15:03:42.672Z</time></trkpt><trkpt lat="41.719493" lon="12.7105756"><ele>397.0</ele><time>2026-04-06T15:03:51.672Z</time></trkpt><trkpt lat="41.7195406" lon="12.710645"><ele>397.0</ele><time>2026-04-06T15:03:59.685Z</time></trkpt><trkpt lat="41.7195945" lon="12.7106914"><ele>397.0</ele><time>2026-04-06T15:04:17.621Z</time></trkpt><trkpt lat="41.7196514" lon="12.7107458"><ele>397.0</ele><time>2026-04-06T15:04:21.649Z</time></trkpt><trkpt lat="41.7197172" lon="12.7107692"><ele>395.1666666666667</ele><time>2026-04-06T15:04:35.632Z</time></trkpt><trkpt lat="41.7198688" lon="12.7107607"><ele>393.33333333333337</ele><time>2026-04-06T15:05:04.579Z</time></trkpt><trkpt lat="41.7199317" lon="12.7107913"><ele>391.5</ele><time>2026-04-06T15:05:11.688Z</time></trkpt><trkpt lat="41.7199872" lon="12.7108391"><ele>389.66666666666663</ele><time>2026-04-06T15:05:17.725Z</time></trkpt><trkpt lat="41.7200493" lon="12.7108083"><ele>387.8333333333333</ele><time>2026-04-06T15:06:46.649Z</time></trkpt><trkpt lat="41.7201209" lon="12.7108108"><ele>386.0</ele><time>2026-04-06T15:06:53.662Z</time></trkpt><trkpt lat="41.7201876" lon="12.7108096"><ele>384.14285714285717</ele><time>2026-04-06T15:06:58.71Z</time></trkpt><trkpt lat="41.7202613" lon="12.7108242"><ele>382.2857142857143</ele><time>2026-04-06T15:07:05.737Z</time></trkpt><trkpt lat="41.7203339" lon="12.710835"><ele>380.42857142857144</ele><time>2026-04-06T15:07:10.677Z</time></trkpt><trkpt lat="41.7204025" lon="12.710859"><ele>378.57142857142856</ele><time>2026-04-06T15:07:16.714Z</time></trkpt><trkpt lat="41.7204684" lon="12.7108933"><ele>376.7142857142857</ele><time>2026-04-06T15:07:22.751Z</time></trkpt><trkpt lat="41.720533" lon="12.7109678"><ele>374.8571428571429</ele><time>2026-04-06T15:07:52.539Z</time></trkpt><trkpt lat="41.7205923" lon="12.7109976"><ele>373.0</ele><time>2026-04-06T15:08:08.708Z</time></trkpt><trkpt lat="41.7206677" lon="12.7110072"><ele>373.0</ele><time>2026-04-06T15:08:16.651Z</time></trkpt><trkpt lat="41.7207476" lon="12.7110313"><ele>373.0</ele><time>2026-04-06T15:08:23.673Z</time></trkpt><trkpt lat="41.7208149" lon="12.7110665"><ele>373.0</ele><time>2026-04-06T15:08:28.722Z</time></trkpt><trkpt lat="41.7208693" lon="12.7111137"><ele>373.0</ele><time>2026-04-06T15:08:37.778Z</time></trkpt><trkpt lat="41.7209352" lon="12.7111247"><ele>373.0</ele><time>2026-04-06T15:08:43.714Z</time></trkpt><trkpt lat="41.721003" lon="12.7111365"><ele>373.0</ele><time>2026-04-06T15:08:51.664Z</time></trkpt><trkpt lat="41.7210613" lon="12.7111727"><ele>373.0</ele><time>2026-04-06T15:08:57.701Z</time></trkpt><trkpt lat="41.7211162" lon="12.7112385"><ele>375.42857142857144</ele><time>2026-04-06T15:09:03.737Z</time></trkpt><trkpt lat="41.7211738" lon="12.7112833"><ele>377.8571428571429</ele><time>2026-04-06T15:09:15.703Z</time></trkpt><trkpt lat="41.7212257" lon="12.7113395"><ele>380.2857142857143</ele><time>2026-04-06T15:09:24.706Z</time></trkpt><trkpt lat="41.7212588" lon="12.7114127"><ele>382.7142857142857</ele><time>2026-04-06T15:09:32.14Z</time></trkpt><trkpt lat="41.7213164" lon="12.7114808"><ele>385.1428571428571</ele><time>2026-04-06T15:09:39.652Z</time></trkpt><trkpt lat="41.7213706" lon="12.7115238"><ele>387.57142857142856</ele><time>2026-04-06T15:09:46.657Z</time></trkpt><trkpt lat="41.7214305" lon="12.7115509"><ele>390.0</ele><time>2026-04-06T15:09:53.682Z</time></trkpt><trkpt lat="41.7214851" lon="12.711611"><ele>390.0</ele><time>2026-04-06T15:10:04.686Z</time></trkpt><trkpt lat="41.7215343" lon="12.7116737"><ele>390.0</ele><time>2026-04-06T15:10:16.733Z</time></trkpt><trkpt lat="41.7215739" lon="12.7117417"><ele>390.0</ele><time>2026-04-06T15:10:23.772Z</time></trkpt><trkpt lat="41.7216425" lon="12.7117868"><ele>390.0</ele><time>2026-04-06T15:11:08.651Z</time></trkpt><trkpt lat="41.7216931" lon="12.7118496"><ele>390.0</ele><time>2026-04-06T15:11:17.479Z</time></trkpt><trkpt lat="41.7217486" lon="12.7119039"><ele>390.0</ele><time>2026-04-06T15:11:25.639Z</time></trkpt><trkpt lat="41.7218036" lon="12.7119597"><ele>390.0</ele><time>2026-04-06T15:11:35.654Z</time></trkpt><trkpt lat="41.7218568" lon="12.712014"><ele>394.1428571428571</ele><time>2026-04-06T15:11:44.655Z</time></trkpt><trkpt lat="41.7219089" lon="12.7120662"><ele>398.2857142857143</ele><time>2026-04-06T15:11:52.66Z</time></trkpt><trkpt lat="41.7219605" lon="12.7121271"><ele>402.42857142857144</ele><time>2026-04-06T15:12:37.672Z</time></trkpt><trkpt lat="41.7220006" lon="12.7121944"><ele>406.57142857142856</ele><time>2026-04-06T15:12:48.652Z</time></trkpt><trkpt lat="41.7220565" lon="12.7122503"><ele>410.7142857142857</ele><time>2026-04-06T15:12:59.735Z</time></trkpt><trkpt lat="41.7220807" lon="12.7123294"><ele>414.85714285714283</ele><time>2026-04-06T15:13:06.65Z</time></trkpt><trkpt lat="41.7220792" lon="12.7124202"><ele>419.0</ele><time>2026-04-06T15:14:09.655Z</time></trkpt><trkpt lat="41.722123" lon="12.7125025"><ele>418.99999999999994</ele><time>2026-04-06T15:15:19.688Z</time></trkpt><trkpt lat="41.7221486" lon="12.7125905"><ele>419.0</ele><time>2026-04-06T15:18:01.703Z</time></trkpt><trkpt lat="41.722216" lon="12.712604"><ele>419.0</ele><time>2026-04-06T15:18:11.692Z</time></trkpt><trkpt lat="41.7223177" lon="12.7125983"><ele>419.0</ele><time>2026-04-06T15:20:22.651Z</time></trkpt><trkpt lat="41.7223745" lon="12.7126485"><ele>419.0</ele><time>2026-04-06T15:20:42.729Z</time></trkpt><trkpt lat="41.7224354" lon="12.7127031"><ele>418.99999999999994</ele><time>2026-04-06T15:20:50.645Z</time></trkpt><trkpt lat="41.7224693" lon="12.7127771"><ele>419.0</ele><time>2026-04-06T15:21:12.695Z</time></trkpt><trkpt lat="41.7225052" lon="12.7128532"><ele>426.16666666666663</ele><time>2026-04-06T15:21:25.651Z</time></trkpt><trkpt lat="41.7225574" lon="12.712914"><ele>433.3333333333333</ele><time>2026-04-06T15:21:32.659Z</time></trkpt><trkpt lat="41.7226224" lon="12.7129314"><ele>440.5</ele><time>2026-04-06T15:21:39.697Z</time></trkpt><trkpt lat="41.7226884" lon="12.7129415"><ele>447.66666666666663</ele><time>2026-04-06T15:21:46.721Z</time></trkpt><trkpt lat="41.7227587" lon="12.7129334"><ele>454.8333333333333</ele><time>2026-04-06T15:21:53.652Z</time></trkpt><trkpt lat="41.722823" lon="12.712941"><ele>462.0</ele><time>2026-04-06T15:22:03.736Z</time></trkpt><trkpt lat="41.7229254" lon="12.7131183"><ele>462.0</ele><time>2026-04-06T15:22:41.715Z</time></trkpt><trkpt lat="41.7229705" lon="12.713181"><ele>462.0</ele><time>2026-04-06T15:22:51.704Z</time></trkpt><trkpt lat="41.7230167" lon="12.71324"><ele>462.0</ele><time>2026-04-06T15:23:07.729Z</time></trkpt><trkpt lat="41.7229426" lon="12.7130526"><ele>462.0</ele><time>2026-04-06T15:23:52.649Z</time></trkpt><trkpt lat="41.7230012" lon="12.7129774"><ele>462.0</ele><time>2026-04-06T15:24:20.771Z</time></trkpt><trkpt lat="41.7230719" lon="12.7129758"><ele>462.0</ele><time>2026-04-06T15:24:28.737Z</time></trkpt><trkpt lat="41.7231326" lon="12.7130121"><ele>462.0</ele><time>2026-04-06T15:24:39.713Z</time></trkpt><trkpt lat="41.7231915" lon="12.7130452"><ele>462.0</ele><time>2026-04-06T15:24:49.702Z</time></trkpt><trkpt lat="41.7232429" lon="12.7131099"><ele>462.0</ele><time>2026-04-06T15:24:59.69Z</time></trkpt><trkpt lat="41.7233006" lon="12.7131499"><ele>462.0</ele><time>2026-04-06T15:25:08.691Z</time></trkpt><trkpt lat="41.7233594" lon="12.7131898"><ele>462.0</ele><time>2026-04-06T15:25:16.704Z</time></trkpt><trkpt lat="41.72341" lon="12.71324"><ele>462.0</ele><time>2026-04-06T15:25:27.68Z</time></trkpt><trkpt lat="41.7234686" lon="12.7132807"><ele>462.0</ele><time>2026-04-06T15:27:07.675Z</time></trkpt><trkpt lat="41.7235924" lon="12.713322"><ele>462.0</ele><time>2026-04-06T15:27:35.699Z</time></trkpt><trkpt lat="41.7236555" lon="12.7133504"><ele>462.0</ele><time>2026-04-06T15:27:42.689Z</time></trkpt><trkpt lat="41.7237285" lon="12.7133506"><ele>462.0</ele><time>2026-04-06T15:28:11.665Z</time></trkpt><trkpt lat="41.7237153" lon="12.7132612"><ele>462.0</ele><time>2026-04-06T15:30:41.714Z</time></trkpt><trkpt lat="41.723654" lon="12.713299"><ele>462.0</ele><time>2026-04-06T15:31:11.68Z</time></trkpt><trkpt lat="41.7236042" lon="12.713359"><ele>462.0</ele><time>2026-04-06T15:31:18.704Z</time></trkpt><trkpt lat="41.7235514" lon="12.7134052"><ele>462.0</ele><time>2026-04-06T15:31:25.729Z</time></trkpt><trkpt lat="41.7234876" lon="12.7134473"><ele>462.0</ele><time>2026-04-06T15:31:37.693Z</time></trkpt><trkpt lat="41.7234148" lon="12.7134635"><ele>462.0</ele><time>2026-04-06T15:31:50.656Z</time></trkpt><trkpt lat="41.7233434" lon="12.7134758"><ele>462.0</ele><time>2026-04-06T15:31:56.682Z</time></trkpt><trkpt lat="41.723303" lon="12.7135422"><ele>462.0</ele><time>2026-04-06T15:32:07.651Z</time></trkpt><trkpt lat="41.7233558" lon="12.7135926"><ele>462.0</ele><time>2026-04-06T15:32:24.672Z</time></trkpt><trkpt lat="41.7234825" lon="12.7136419"><ele>462.0</ele><time>2026-04-06T15:32:47.791Z</time></trkpt><trkpt lat="41.7235444" lon="12.7136219"><ele>472.8333333333333</ele><time>2026-04-06T15:32:57.71Z</time></trkpt><trkpt lat="41.7236595" lon="12.7136119"><ele>483.66666666666663</ele><time>2026-04-06T15:33:34.7Z</time></trkpt><trkpt lat="41.7237287" lon="12.7136069"><ele>494.5</ele><time>2026-04-06T15:33:50.725Z</time></trkpt><trkpt lat="41.7237946" lon="12.7136247"><ele>505.3333333333333</ele><time>2026-04-06T15:33:59.726Z</time></trkpt><trkpt lat="41.7238621" lon="12.7136217"><ele>516.1666666666666</ele><time>2026-04-06T15:34:07.738Z</time></trkpt><trkpt lat="41.7239246" lon="12.7135962"><ele>527.0</ele><time>2026-04-06T15:34:14.653Z</time></trkpt><trkpt lat="41.7239948" lon="12.713575"><ele>527.0000000000001</ele><time>2026-04-06T15:35:00.653Z</time></trkpt><trkpt lat="41.72392" lon="12.7135867"><ele>527.0</ele><time>2026-04-06T15:37:51.653Z</time></trkpt><trkpt lat="41.7238617" lon="12.71362"><ele>527.0</ele><time>2026-04-06T15:38:02.652Z</time></trkpt><trkpt lat="41.7237883" lon="12.7136733"><ele>527.0</ele><time>2026-04-06T15:38:15.651Z</time></trkpt><trkpt lat="41.7237245" lon="12.7137"><ele>527.0</ele><time>2026-04-06T15:38:26.666Z</time></trkpt><trkpt lat="41.7236602" lon="12.7137098"><ele>527.0000000000001</ele><time>2026-04-06T15:38:35.784Z</time></trkpt><trkpt lat="41.723603" lon="12.7137524"><ele>527.0</ele><time>2026-04-06T15:38:47.742Z</time></trkpt><trkpt lat="41.7235629" lon="12.7138275"><ele>525.7142857142858</ele><time>2026-04-06T15:38:59.706Z</time></trkpt><trkpt lat="41.7234944" lon="12.7138354"><ele>524.4285714285714</ele><time>2026-04-06T15:39:07.718Z</time></trkpt><trkpt lat="41.7234432" lon="12.7138865"><ele>523.1428571428571</ele><time>2026-04-06T15:39:16.719Z</time></trkpt><trkpt lat="41.7233814" lon="12.7139196"><ele>521.8571428571429</ele><time>2026-04-06T15:39:26.707Z</time></trkpt><trkpt lat="41.7233204" lon="12.7139728"><ele>520.5714285714286</ele><time>2026-04-06T15:39:37.683Z</time></trkpt><trkpt lat="41.7232504" lon="12.7139948"><ele>519.2857142857143</ele><time>2026-04-06T15:39:44.708Z</time></trkpt><trkpt lat="41.7232017" lon="12.7139325"><ele>518.0</ele><time>2026-04-06T15:39:52.721Z</time></trkpt><trkpt lat="41.7231354" lon="12.7139283"><ele>518.0</ele><time>2026-04-06T15:40:01.721Z</time></trkpt><trkpt lat="41.723065" lon="12.713916"><ele>518.0</ele><time>2026-04-06T15:40:11.708Z</time></trkpt><trkpt lat="41.7229988" lon="12.7138851"><ele>518.0</ele><time>2026-04-06T15:40:21.698Z</time></trkpt><trkpt lat="41.7228518" lon="12.7138182"><ele>518.0</ele><time>2026-04-06T15:41:26.677Z</time></trkpt><trkpt lat="41.7227909" lon="12.7138579"><ele>518.0</ele><time>2026-04-06T15:41:38.652Z</time></trkpt><trkpt lat="41.7227395" lon="12.7139168"><ele>518.0</ele><time>2026-04-06T15:41:48.739Z</time></trkpt><trkpt lat="41.7226759" lon="12.7138963"><ele>523.1999999999999</ele><time>2026-04-06T15:41:53.678Z</time></trkpt><trkpt lat="41.7226186" lon="12.7138601"><ele>528.4</ele><time>2026-04-06T15:42:00.674Z</time></trkpt><trkpt lat="41.722553" lon="12.7138657"><ele>533.5999999999999</ele><time>2026-04-06T15:42:08.715Z</time></trkpt><trkpt lat="41.7224926" lon="12.7138232"><ele>538.8</ele><time>2026-04-06T15:42:20.679Z</time></trkpt><trkpt lat="41.7224057" lon="12.7137992"><ele>544.0</ele><time>2026-04-06T15:42:45.705Z</time></trkpt><trkpt lat="41.722271" lon="12.7136528"><ele>544.0</ele><time>2026-04-06T15:43:22.694Z</time></trkpt><trkpt lat="41.7222411" lon="12.7137286"><ele>544.0</ele><time>2026-04-06T15:43:57.709Z</time></trkpt><trkpt lat="41.7221766" lon="12.7137145"><ele>544.0</ele><time>2026-04-06T15:44:16.697Z</time></trkpt><trkpt lat="41.7220347" lon="12.713657"><ele>544.0</ele><time>2026-04-06T15:44:37.663Z</time></trkpt><trkpt lat="41.7219716" lon="12.7136352"><ele>544.0</ele><time>2026-04-06T15:44:41.724Z</time></trkpt><trkpt lat="41.7219634" lon="12.7137207"><ele>544.0</ele><time>2026-04-06T15:45:27.714Z</time></trkpt><trkpt lat="41.7218625" lon="12.7137828"><ele>568.0</ele><time>2026-04-06T15:45:59.655Z</time></trkpt></trkseg></trk></gpx>